Home > Products > Valid Products > TAF

000
FTUS46 KOTX 300534
TAFEAT
TAF
KEAT 300534Z 3006/3106 30006KT P6SM BKN200
     FM301900 15005KT P6SM SCT250
     FM310400 VRB04KT P6SM SCT250=



000
FTUS46 KOTX 300534
TAFMWH
TAF
KMWH 300534Z 3006/3106 VRB04KT P6SM BKN200
     FM301800 21009KT P6SM SCT250=



000
FTUS46 KOTX 300534
TAFPUW
TAF
KPUW 300534Z 3006/3106 10005KT P6SM SCT200
     FM301800 15009KT P6SM FEW250
     FM302000 21010KT P6SM SCT250
     FM310200 VRB03KT P6SM FEW120 BKN200=



000
FTUS46 KOTX 300534
TAFPUW
TAF
KPUW 300534Z 3006/3106 10005KT P6SM SCT200
     FM301800 15009KT P6SM FEW250
     FM302000 21010KT P6SM SCT250
     FM310200 VRB03KT P6SM FEW120 BKN200=



000
FTUS46 KOTX 300534
TAFGEG
TAF
KGEG 300534Z 3006/3106 16005KT P6SM BKN200
     FM300900 14005KT P6SM SCT250
     FM301800 21011G19KT P6SM SCT250
     FM310200 18006KT P6SM BKN200=



000
FTUS46 KOTX 300534
TAFMWH
TAF
KMWH 300534Z 3006/3106 VRB04KT P6SM BKN200
     FM301800 21009KT P6SM SCT250=



000
FTUS46 KOTX 300534
TAFCOE
TAF
KCOE 300534Z 3006/3106 14004KT P6SM BKN200
     FM300900 10004KT P6SM SCT250
     FM301800 21010G17KT P6SM SCT250
     FM310200 14005KT P6SM BKN200
      AMD LTD TO CLD AND VIS=



000
FTUS46 KOTX 300534
TAFLWS
TAF
KLWS 300534Z 3006/3106 14004KT P6SM SCT200
     FM301300 09004KT P6SM FEW250
     FM301900 31006KT P6SM SCT250
     FM310300 VRB03KT P6SM SCT120 BKN200=



000
FTUS46 KOTX 300534
TAFLWS
TAF
KLWS 300534Z 3006/3106 14004KT P6SM SCT200
     FM301300 09004KT P6SM FEW250
     FM301900 31006KT P6SM SCT250
     FM310300 VRB03KT P6SM SCT120 BKN200=



000
FTUS46 KOTX 300534
TAFGEG
TAF
KGEG 300534Z 3006/3106 16005KT P6SM BKN200
     FM300900 14005KT P6SM SCT250
     FM301800 21011G19KT P6SM SCT250
     FM310200 18006KT P6SM BKN200=



000
FTUS46 KOTX 300534
TAFEAT
TAF
KEAT 300534Z 3006/3106 30006KT P6SM BKN200
     FM301900 15005KT P6SM SCT250
     FM310400 VRB04KT P6SM SCT250=



000
FTUS46 KOTX 300534
TAFSFF
TAF
KSFF 300534Z 3006/3106 VRB03KT P6SM BKN200
     FM300900 VRB03KT P6SM SCT250
     FM301800 21010G17KT P6SM SCT250
     FM310100 20005KT P6SM BKN200=



000
FTUS46 KOTX 300534
TAFSFF
TAF
KSFF 300534Z 3006/3106 VRB03KT P6SM BKN200
     FM300900 VRB03KT P6SM SCT250
     FM301800 21010G17KT P6SM SCT250
     FM310100 20005KT P6SM BKN200=



000
FTUS46 KOTX 300534
TAFCOE
TAF
KCOE 300534Z 3006/3106 14004KT P6SM BKN200
     FM300900 10004KT P6SM SCT250
     FM301800 21010G17KT P6SM SCT250
     FM310200 14005KT P6SM BKN200
      AMD LTD TO CLD AND VIS=



000
FTUS46 KOTX 300534
TAFPUW
TAF
KPUW 300534Z 3006/3106 10005KT P6SM SCT200
     FM301800 15009KT P6SM FEW250
     FM302000 21010KT P6SM SCT250
     FM310200 VRB03KT P6SM FEW120 BKN200=



000
FTUS46 KOTX 300534
TAFGEG
TAF
KGEG 300534Z 3006/3106 16005KT P6SM BKN200
     FM300900 14005KT P6SM SCT250
     FM301800 21011G19KT P6SM SCT250
     FM310200 18006KT P6SM BKN200=



000
FTUS46 KOTX 300534
TAFLWS
TAF
KLWS 300534Z 3006/3106 14004KT P6SM SCT200
     FM301300 09004KT P6SM FEW250
     FM301900 31006KT P6SM SCT250
     FM310300 VRB03KT P6SM SCT120 BKN200=



000
FTUS46 KOTX 300534
TAFLWS
TAF
KLWS 300534Z 3006/3106 14004KT P6SM SCT200
     FM301300 09004KT P6SM FEW250
     FM301900 31006KT P6SM SCT250
     FM310300 VRB03KT P6SM SCT120 BKN200=



000
FTUS46 KOTX 300534
TAFMWH
TAF
KMWH 300534Z 3006/3106 VRB04KT P6SM BKN200
     FM301800 21009KT P6SM SCT250=



000
FTUS46 KOTX 300534
TAFSFF
TAF
KSFF 300534Z 3006/3106 VRB03KT P6SM BKN200
     FM300900 VRB03KT P6SM SCT250
     FM301800 21010G17KT P6SM SCT250
     FM310100 20005KT P6SM BKN200=



000
FTUS46 KOTX 300534
TAFEAT
TAF
KEAT 300534Z 3006/3106 30006KT P6SM BKN200
     FM301900 15005KT P6SM SCT250
     FM310400 VRB04KT P6SM SCT250=



000
FTUS46 KOTX 300534
TAFCOE
TAF
KCOE 300534Z 3006/3106 14004KT P6SM BKN200
     FM300900 10004KT P6SM SCT250
     FM301800 21010G17KT P6SM SCT250
     FM310200 14005KT P6SM BKN200
      AMD LTD TO CLD AND VIS=



000
FTUS46 KOTX 300534
TAFCOE
TAF
KCOE 300534Z 3006/3106 14004KT P6SM BKN200
     FM300900 10004KT P6SM SCT250
     FM301800 21010G17KT P6SM SCT250
     FM310200 14005KT P6SM BKN200
      AMD LTD TO CLD AND VIS=



000
FTUS46 KOTX 300534
TAFGEG
TAF
KGEG 300534Z 3006/3106 16005KT P6SM BKN200
     FM300900 14005KT P6SM SCT250
     FM301800 21011G19KT P6SM SCT250
     FM310200 18006KT P6SM BKN200=



000
FTUS46 KOTX 300534
TAFMWH
TAF
KMWH 300534Z 3006/3106 VRB04KT P6SM BKN200
     FM301800 21009KT P6SM SCT250=



000
FTUS46 KOTX 300534
TAFSFF
TAF
KSFF 300534Z 3006/3106 VRB03KT P6SM BKN200
     FM300900 VRB03KT P6SM SCT250
     FM301800 21010G17KT P6SM SCT250
     FM310100 20005KT P6SM BKN200=



000
FTUS46 KOTX 300534
TAFPUW
TAF
KPUW 300534Z 3006/3106 10005KT P6SM SCT200
     FM301800 15009KT P6SM FEW250
     FM302000 21010KT P6SM SCT250
     FM310200 VRB03KT P6SM FEW120 BKN200=



000
FTUS46 KOTX 300534
TAFEAT
TAF
KEAT 300534Z 3006/3106 30006KT P6SM BKN200
     FM301900 15005KT P6SM SCT250
     FM310400 VRB04KT P6SM SCT250=



000
FTUS46 KOTX 292322
TAFPUW
TAF
KPUW 292322Z 3000/3024 24011KT P6SM SCT200
     FM300200 10006KT P6SM SCT200
     FM301800 15009KT P6SM FEW250
     FM302000 21010KT P6SM SCT250=



000
FTUS46 KOTX 292322
TAFGEG
TAF
KGEG 292322Z 3000/3024 20011KT P6SM SCT060 BKN200
     FM300300 16005KT P6SM FEW100 BKN200
     FM300900 14005KT P6SM SCT250
     FM301800 21011G19KT P6SM SCT250=



000
FTUS46 KOTX 292322
TAFSFF
TAF
KSFF 292322Z 3000/3024 22011KT P6SM SCT060 BKN200
     FM300300 VRB03KT P6SM FEW100 BKN200
     FM300900 VRB03KT P6SM SCT250
     FM301800 21010G17KT P6SM SCT250=



000
FTUS46 KOTX 292322
TAFMWH
TAF
KMWH 292322Z 3000/3024 22008KT P6SM FEW070 BKN200
     FM300400 VRB04KT P6SM BKN200
     FM301800 22009KT P6SM SCT250=



000
FTUS46 KOTX 292322
TAFEAT
TAF
KEAT 292322Z 3000/3024 30006KT P6SM BKN200
     FM301900 15005KT P6SM SCT250=



000
FTUS46 KOTX 292322
TAFLWS
TAF
KLWS 292322Z 3000/3024 31008KT P6SM SCT200
     FM300300 14004KT P6SM SCT200
     FM301300 09004KT P6SM FEW250
     FM301900 31008KT P6SM SCT250=



000
FTUS46 KOTX 292322
TAFCOE
TAF
KCOE 292322Z 3000/3024 22011KT P6SM SCT070 BKN200
     FM300300 14004KT P6SM FEW100 BKN200
     FM300900 10004KT P6SM SCT250
     FM301800 21010G17KT P6SM SCT250
      AMD LTD TO CLD AND VIS=



000
FTUS46 KOTX 292322
TAFPUW
TAF
KPUW 292322Z 3000/3024 24011KT P6SM SCT200
     FM300200 10006KT P6SM SCT200
     FM301800 15009KT P6SM FEW250
     FM302000 21010KT P6SM SCT250=



000
FTUS46 KOTX 292322
TAFEAT
TAF
KEAT 292322Z 3000/3024 30006KT P6SM BKN200
     FM301900 15005KT P6SM SCT250=



000
FTUS46 KOTX 292322
TAFCOE
TAF
KCOE 292322Z 3000/3024 22011KT P6SM SCT070 BKN200
     FM300300 14004KT P6SM FEW100 BKN200
     FM300900 10004KT P6SM SCT250
     FM301800 21010G17KT P6SM SCT250
      AMD LTD TO CLD AND VIS=



000
FTUS46 KOTX 292322
TAFSFF
TAF
KSFF 292322Z 3000/3024 22011KT P6SM SCT060 BKN200
     FM300300 VRB03KT P6SM FEW100 BKN200
     FM300900 VRB03KT P6SM SCT250
     FM301800 21010G17KT P6SM SCT250=



000
FTUS46 KOTX 292322
TAFLWS
TAF
KLWS 292322Z 3000/3024 31008KT P6SM SCT200
     FM300300 14004KT P6SM SCT200
     FM301300 09004KT P6SM FEW250
     FM301900 31008KT P6SM SCT250=



000
FTUS46 KOTX 292322
TAFGEG
TAF
KGEG 292322Z 3000/3024 20011KT P6SM SCT060 BKN200
     FM300300 16005KT P6SM FEW100 BKN200
     FM300900 14005KT P6SM SCT250
     FM301800 21011G19KT P6SM SCT250=



000
FTUS46 KOTX 292322
TAFLWS
TAF
KLWS 292322Z 3000/3024 31008KT P6SM SCT200
     FM300300 14004KT P6SM SCT200
     FM301300 09004KT P6SM FEW250
     FM301900 31008KT P6SM SCT250=



000
FTUS46 KOTX 292322
TAFCOE
TAF
KCOE 292322Z 3000/3024 22011KT P6SM SCT070 BKN200
     FM300300 14004KT P6SM FEW100 BKN200
     FM300900 10004KT P6SM SCT250
     FM301800 21010G17KT P6SM SCT250
      AMD LTD TO CLD AND VIS=



000
FTUS46 KOTX 292322
TAFPUW
TAF
KPUW 292322Z 3000/3024 24011KT P6SM SCT200
     FM300200 10006KT P6SM SCT200
     FM301800 15009KT P6SM FEW250
     FM302000 21010KT P6SM SCT250=



000
FTUS46 KOTX 292322
TAFEAT
TAF
KEAT 292322Z 3000/3024 30006KT P6SM BKN200
     FM301900 15005KT P6SM SCT250=



000
FTUS46 KOTX 292322
TAFSFF
TAF
KSFF 292322Z 3000/3024 22011KT P6SM SCT060 BKN200
     FM300300 VRB03KT P6SM FEW100 BKN200
     FM300900 VRB03KT P6SM SCT250
     FM301800 21010G17KT P6SM SCT250=



000
FTUS46 KOTX 292322
TAFMWH
TAF
KMWH 292322Z 3000/3024 22008KT P6SM FEW070 BKN200
     FM300400 VRB04KT P6SM BKN200
     FM301800 22009KT P6SM SCT250=



000
FTUS46 KOTX 292322
TAFGEG
TAF
KGEG 292322Z 3000/3024 20011KT P6SM SCT060 BKN200
     FM300300 16005KT P6SM FEW100 BKN200
     FM300900 14005KT P6SM SCT250
     FM301800 21011G19KT P6SM SCT250=



000
FTUS46 KOTX 292322
TAFPUW
TAF
KPUW 292322Z 3000/3024 24011KT P6SM SCT200
     FM300200 10006KT P6SM SCT200
     FM301800 15009KT P6SM FEW250
     FM302000 21010KT P6SM SCT250=



000
FTUS46 KOTX 292322
TAFMWH
TAF
KMWH 292322Z 3000/3024 22008KT P6SM FEW070 BKN200
     FM300400 VRB04KT P6SM BKN200
     FM301800 22009KT P6SM SCT250=



000
FTUS46 KOTX 292322
TAFLWS
TAF
KLWS 292322Z 3000/3024 31008KT P6SM SCT200
     FM300300 14004KT P6SM SCT200
     FM301300 09004KT P6SM FEW250
     FM301900 31008KT P6SM SCT250=



000
FTUS46 KOTX 292322
TAFEAT
TAF
KEAT 292322Z 3000/3024 30006KT P6SM BKN200
     FM301900 15005KT P6SM SCT250=



000
FTUS46 KOTX 292322
TAFSFF
TAF
KSFF 292322Z 3000/3024 22011KT P6SM SCT060 BKN200
     FM300300 VRB03KT P6SM FEW100 BKN200
     FM300900 VRB03KT P6SM SCT250
     FM301800 21010G17KT P6SM SCT250=



000
FTUS46 KOTX 292322
TAFCOE
TAF
KCOE 292322Z 3000/3024 22011KT P6SM SCT070 BKN200
     FM300300 14004KT P6SM FEW100 BKN200
     FM300900 10004KT P6SM SCT250
     FM301800 21010G17KT P6SM SCT250
      AMD LTD TO CLD AND VIS=



000
FTUS46 KOTX 292059 AAA
TAFSFF
TAF AMD
KSFF 292059Z 2921/3018 22012G21KT P6SM FEW050 SCT100
     FM300600 08005KT P6SM BKN100
     FM301000 VRB04KT P6SM SCT250=



000
FTUS46 KOTX 292059 AAA
TAFSFF
TAF AMD
KSFF 292059Z 2921/3018 22012G21KT P6SM FEW050 SCT100
     FM300600 08005KT P6SM BKN100
     FM301000 VRB04KT P6SM SCT250=



000
FTUS46 KOTX 291742 CCA
TAFMWH
TAF COR
KMWH 291742Z 2918/3018 19008KT P6SM SCT080 BKN150
     FM300300 04005KT P6SM BKN100
     FM300700 05005KT P6SM SCT250=



000
FTUS46 KOTX 291742 CCA
TAFMWH
TAF COR
KMWH 291742Z 2918/3018 19008KT P6SM SCT080 BKN150
     FM300300 04005KT P6SM BKN100
     FM300700 05005KT P6SM SCT250=



000
FTUS46 KOTX 291742 CCA
TAFMWH
TAF COR
KMWH 291742Z 2918/3018 19008KT P6SM SCT080 BKN150
     FM300300 04005KT P6SM BKN100
     FM300700 05005KT P6SM SCT250=



000
FTUS46 KOTX 291741 CCA
TAFEAT
TAF COR
KEAT 291741Z 2918/3018 VRB04KT P6SM SCT070 BKN120
     FM300000 29009KT P6SM BKN120
     FM300600 30010KT P6SM SCT250=



000
FTUS46 KOTX 291741 CCA
TAFEAT
TAF COR
KEAT 291741Z 2918/3018 VRB04KT P6SM SCT070 BKN120
     FM300000 29009KT P6SM BKN120
     FM300600 30010KT P6SM SCT250=



000
FTUS46 KOTX 291741 CCA
TAFEAT
TAF COR
KEAT 291741Z 2918/3018 VRB04KT P6SM SCT070 BKN120
     FM300000 29009KT P6SM BKN120
     FM300600 30010KT P6SM SCT250=



000
FTUS46 KOTX 291741 CCA
TAFEAT
TAF COR
KEAT 291741Z 2918/3018 VRB04KT P6SM SCT070 BKN120
     FM300000 29009KT P6SM BKN120
     FM300600 30010KT P6SM SCT250=



000
FTUS46 KOTX 291740
TAFMWH
TAF
KMWH 291740Z 2918/3018 19008KT P6SM SCT080 BKN150
     FM300500 04005KT P6SM BKN100
     FM301000 05005KT P6SM BKN100=



000
FTUS46 KOTX 291740
TAFSFF
TAF
KSFF 291740Z 2918/3018 VRB04KT P6SM BKN090
     FM292000 22007KT P6SM FEW050 SCT100
     FM300600 08005KT P6SM BKN100
     FM301000 VRB04KT P6SM SCT250=



000
FTUS46 KOTX 291740
TAFGEG
TAF
KGEG 291740Z 2918/3018 17008KT P6SM BKN090
     FM292000 21011KT P6SM FEW050 SCT100
     FM300600 14005KT P6SM BKN100
     FM300900 12007KT P6SM SCT250=



000
FTUS46 KOTX 291740
TAFPUW
TAF
KPUW 291740Z 2918/3018 09009KT P6SM BKN090
     FM292100 24011KT P6SM BKN090
     FM300200 07006KT P6SM SCT090 BKN200=



000
FTUS46 KOTX 291740
TAFLWS
TAF
KLWS 291740Z 2918/3018 08009KT P6SM BKN090
     FM292100 30005KT P6SM BKN100
     FM300200 12004KT P6SM SCT090 BKN200
     FM301000 06008KT P6SM SCT250=



000
FTUS46 KOTX 291740
TAFMWH
TAF
KMWH 291740Z 2918/3018 19008KT P6SM SCT080 BKN150
     FM300500 04005KT P6SM BKN100
     FM301000 05005KT P6SM BKN100=



000
FTUS46 KOTX 291740
TAFEAT
TAF
KEAT 291740Z 2918/3018 VRB04KT P6SM SCT070 BKN120
     FM300000 29009KT P6SM BKN120
     FM301000 30010KT P6SM BKN100=



000
FTUS46 KOTX 291740
TAFSFF
TAF
KSFF 291740Z 2918/3018 VRB04KT P6SM BKN090
     FM292000 22007KT P6SM FEW050 SCT100
     FM300600 08005KT P6SM BKN100
     FM301000 VRB04KT P6SM SCT250=



000
FTUS46 KOTX 291740
TAFLWS
TAF
KLWS 291740Z 2918/3018 08009KT P6SM BKN090
     FM292100 30005KT P6SM BKN100
     FM300200 12004KT P6SM SCT090 BKN200
     FM301000 06008KT P6SM SCT250=



000
FTUS46 KOTX 291740
TAFCOE
TAF
KCOE 291740Z 2918/3018 17008KT P6SM BKN090
     FM292000 21010KT P6SM FEW050 BKN100
     FM300700 09005KT P6SM BKN100
     FM301000 06008KT P6SM SCT250
      AMD LTD TO CLD AND VIS=



000
FTUS46 KOTX 291740
TAFPUW
TAF
KPUW 291740Z 2918/3018 09009KT P6SM BKN090
     FM292100 24011KT P6SM BKN090
     FM300200 07006KT P6SM SCT090 BKN200=



000
FTUS46 KOTX 291740
TAFCOE
TAF
KCOE 291740Z 2918/3018 17008KT P6SM BKN090
     FM292000 21010KT P6SM FEW050 BKN100
     FM300700 09005KT P6SM BKN100
     FM301000 06008KT P6SM SCT250
      AMD LTD TO CLD AND VIS=



000
FTUS46 KOTX 291740
TAFSFF
TAF
KSFF 291740Z 2918/3018 VRB04KT P6SM BKN090
     FM292000 22007KT P6SM FEW050 SCT100
     FM300600 08005KT P6SM BKN100
     FM301000 VRB04KT P6SM SCT250=



000
FTUS46 KOTX 291740
TAFEAT
TAF
KEAT 291740Z 2918/3018 VRB04KT P6SM SCT070 BKN120
     FM300000 29009KT P6SM BKN120
     FM301000 30010KT P6SM BKN100=



000
FTUS46 KOTX 291740
TAFGEG
TAF
KGEG 291740Z 2918/3018 17008KT P6SM BKN090
     FM292000 21011KT P6SM FEW050 SCT100
     FM300600 14005KT P6SM BKN100
     FM300900 12007KT P6SM SCT250=



000
FTUS46 KOTX 291740
TAFGEG
TAF
KGEG 291740Z 2918/3018 17008KT P6SM BKN090
     FM292000 21011KT P6SM FEW050 SCT100
     FM300600 14005KT P6SM BKN100
     FM300900 12007KT P6SM SCT250=



000
FTUS46 KOTX 291740
TAFMWH
TAF
KMWH 291740Z 2918/3018 19008KT P6SM SCT080 BKN150
     FM300500 04005KT P6SM BKN100
     FM301000 05005KT P6SM BKN100=



000
FTUS46 KOTX 291740
TAFMWH
TAF
KMWH 291740Z 2918/3018 19008KT P6SM SCT080 BKN150
     FM300500 04005KT P6SM BKN100
     FM301000 05005KT P6SM BKN100=



000
FTUS46 KOTX 291740
TAFEAT
TAF
KEAT 291740Z 2918/3018 VRB04KT P6SM SCT070 BKN120
     FM300000 29009KT P6SM BKN120
     FM301000 30010KT P6SM BKN100=



000
FTUS46 KOTX 291740
TAFLWS
TAF
KLWS 291740Z 2918/3018 08009KT P6SM BKN090
     FM292100 30005KT P6SM BKN100
     FM300200 12004KT P6SM SCT090 BKN200
     FM301000 06008KT P6SM SCT250=



000
FTUS46 KOTX 291740
TAFPUW
TAF
KPUW 291740Z 2918/3018 09009KT P6SM BKN090
     FM292100 24011KT P6SM BKN090
     FM300200 07006KT P6SM SCT090 BKN200=



000
FTUS46 KOTX 291740
TAFSFF
TAF
KSFF 291740Z 2918/3018 VRB04KT P6SM BKN090
     FM292000 22007KT P6SM FEW050 SCT100
     FM300600 08005KT P6SM BKN100
     FM301000 VRB04KT P6SM SCT250=



000
FTUS46 KOTX 291740
TAFCOE
TAF
KCOE 291740Z 2918/3018 17008KT P6SM BKN090
     FM292000 21010KT P6SM FEW050 BKN100
     FM300700 09005KT P6SM BKN100
     FM301000 06008KT P6SM SCT250
      AMD LTD TO CLD AND VIS=



000
FTUS46 KOTX 291740
TAFEAT
TAF
KEAT 291740Z 2918/3018 VRB04KT P6SM SCT070 BKN120
     FM300000 29009KT P6SM BKN120
     FM301000 30010KT P6SM BKN100=



000
FTUS46 KOTX 291740
TAFLWS
TAF
KLWS 291740Z 2918/3018 08009KT P6SM BKN090
     FM292100 30005KT P6SM BKN100
     FM300200 12004KT P6SM SCT090 BKN200
     FM301000 06008KT P6SM SCT250=



000
FTUS46 KOTX 291740
TAFGEG
TAF
KGEG 291740Z 2918/3018 17008KT P6SM BKN090
     FM292000 21011KT P6SM FEW050 SCT100
     FM300600 14005KT P6SM BKN100
     FM300900 12007KT P6SM SCT250=



000
FTUS46 KOTX 291740
TAFPUW
TAF
KPUW 291740Z 2918/3018 09009KT P6SM BKN090
     FM292100 24011KT P6SM BKN090
     FM300200 07006KT P6SM SCT090 BKN200=



000
FTUS46 KOTX 291740
TAFCOE
TAF
KCOE 291740Z 2918/3018 17008KT P6SM BKN090
     FM292000 21010KT P6SM FEW050 BKN100
     FM300700 09005KT P6SM BKN100
     FM301000 06008KT P6SM SCT250
      AMD LTD TO CLD AND VIS=



000
FTUS46 KOTX 291130
TAFSFF
TAF
KSFF 291130Z 2912/3012 VRB03KT P6SM SCT120 OVC150
     FM291800 21008KT P6SM FEW060 SCT120 SCT200
     FM300200 VRB02KT P6SM BKN150 BKN200=



000
FTUS46 KOTX 291130
TAFEAT
TAF
KEAT 291130Z 2912/3012 30004KT P6SM SCT120 BKN150
     FM291700 VRB04KT P6SM SCT150 SCT200
     FM300000 29009KT P6SM BKN150 BKN200=



000
FTUS46 KOTX 291130
TAFMWH
TAF
KMWH 291130Z 2912/3012 16006KT P6SM SCT120 BKN150
     FM291800 20009KT P6SM SCT150 SCT200
     FM300500 VRB04KT P6SM SCT120 BKN150 BKN200=



000
FTUS46 KOTX 291130
TAFEAT
TAF
KEAT 291130Z 2912/3012 30004KT P6SM SCT120 BKN150
     FM291700 VRB04KT P6SM SCT150 SCT200
     FM300000 29009KT P6SM BKN150 BKN200=



000
FTUS46 KOTX 291130
TAFCOE
TAF
KCOE 291130Z 2912/3012 16007KT P6SM SCT120 OVC150
     FM291800 21009KT P6SM SCT050 SCT110 BKN200
     FM300200 15005KT P6SM BKN150 BKN200
      AMD LTD TO CLD AND VIS=



000
FTUS46 KOTX 291130
TAFGEG
TAF
KGEG 291130Z 2912/3012 17006KT P6SM SCT120 OVC150
     FM291800 21011KT P6SM FEW050 SCT120 SCT200
     FM300200 18005KT P6SM BKN150 BKN200=



000
FTUS46 KOTX 291130
TAFSFF
TAF
KSFF 291130Z 2912/3012 VRB03KT P6SM SCT120 OVC150
     FM291800 21008KT P6SM FEW060 SCT120 SCT200
     FM300200 VRB02KT P6SM BKN150 BKN200=



000
FTUS46 KOTX 291130
TAFLWS
TAF
KLWS 291130Z 2912/3012 VRB03KT P6SM SCT120 BKN200
     FM292000 31005KT P6SM SCT100 SCT200
     FM300300 15003KT P6SM BKN150 BKN200=



000
FTUS46 KOTX 291130
TAFPUW
TAF
KPUW 291130Z 2912/3012 09004KT P6SM SCT120 BKN200
     FM291800 20009KT P6SM SCT100 SCT200
     FM292000 24011KT P6SM SCT150 BKN200
     FM300200 13004KT P6SM BKN150 BKN200=



000
FTUS46 KOTX 291130
TAFMWH
TAF
KMWH 291130Z 2912/3012 16006KT P6SM SCT120 BKN150
     FM291800 20009KT P6SM SCT150 SCT200
     FM300500 VRB04KT P6SM SCT120 BKN150 BKN200=



000
FTUS46 KOTX 291130
TAFCOE
TAF
KCOE 291130Z 2912/3012 16007KT P6SM SCT120 OVC150
     FM291800 21009KT P6SM SCT050 SCT110 BKN200
     FM300200 15005KT P6SM BKN150 BKN200
      AMD LTD TO CLD AND VIS=



000
FTUS46 KOTX 291130
TAFMWH
TAF
KMWH 291130Z 2912/3012 16006KT P6SM SCT120 BKN150
     FM291800 20009KT P6SM SCT150 SCT200
     FM300500 VRB04KT P6SM SCT120 BKN150 BKN200=



000
FTUS46 KOTX 291130
TAFLWS
TAF
KLWS 291130Z 2912/3012 VRB03KT P6SM SCT120 BKN200
     FM292000 31005KT P6SM SCT100 SCT200
     FM300300 15003KT P6SM BKN150 BKN200=



000
FTUS46 KOTX 291130
TAFPUW
TAF
KPUW 291130Z 2912/3012 09004KT P6SM SCT120 BKN200
     FM291800 20009KT P6SM SCT100 SCT200
     FM292000 24011KT P6SM SCT150 BKN200
     FM300200 13004KT P6SM BKN150 BKN200=



000
FTUS46 KOTX 291130
TAFEAT
TAF
KEAT 291130Z 2912/3012 30004KT P6SM SCT120 BKN150
     FM291700 VRB04KT P6SM SCT150 SCT200
     FM300000 29009KT P6SM BKN150 BKN200=



000
FTUS46 KOTX 291130
TAFGEG
TAF
KGEG 291130Z 2912/3012 17006KT P6SM SCT120 OVC150
     FM291800 21011KT P6SM FEW050 SCT120 SCT200
     FM300200 18005KT P6SM BKN150 BKN200=



000
FTUS46 KOTX 291130
TAFLWS
TAF
KLWS 291130Z 2912/3012 VRB03KT P6SM SCT120 BKN200
     FM292000 31005KT P6SM SCT100 SCT200
     FM300300 15003KT P6SM BKN150 BKN200=



000
FTUS46 KOTX 291130
TAFEAT
TAF
KEAT 291130Z 2912/3012 30004KT P6SM SCT120 BKN150
     FM291700 VRB04KT P6SM SCT150 SCT200
     FM300000 29009KT P6SM BKN150 BKN200=



000
FTUS46 KOTX 291130
TAFPUW
TAF
KPUW 291130Z 2912/3012 09004KT P6SM SCT120 BKN200
     FM291800 20009KT P6SM SCT100 SCT200
     FM292000 24011KT P6SM SCT150 BKN200
     FM300200 13004KT P6SM BKN150 BKN200=



000
FTUS46 KOTX 291130
TAFGEG
TAF
KGEG 291130Z 2912/3012 17006KT P6SM SCT120 OVC150
     FM291800 21011KT P6SM FEW050 SCT120 SCT200
     FM300200 18005KT P6SM BKN150 BKN200=



000
FTUS46 KOTX 291130
TAFGEG
TAF
KGEG 291130Z 2912/3012 17006KT P6SM SCT120 OVC150
     FM291800 21011KT P6SM FEW050 SCT120 SCT200
     FM300200 18005KT P6SM BKN150 BKN200=



000
FTUS46 KOTX 291130
TAFMWH
TAF
KMWH 291130Z 2912/3012 16006KT P6SM SCT120 BKN150
     FM291800 20009KT P6SM SCT150 SCT200
     FM300500 VRB04KT P6SM SCT120 BKN150 BKN200=



000
FTUS46 KOTX 291130
TAFCOE
TAF
KCOE 291130Z 2912/3012 16007KT P6SM SCT120 OVC150
     FM291800 21009KT P6SM SCT050 SCT110 BKN200
     FM300200 15005KT P6SM BKN150 BKN200
      AMD LTD TO CLD AND VIS=



000
FTUS46 KOTX 291130
TAFPUW
TAF
KPUW 291130Z 2912/3012 09004KT P6SM SCT120 BKN200
     FM291800 20009KT P6SM SCT100 SCT200
     FM292000 24011KT P6SM SCT150 BKN200
     FM300200 13004KT P6SM BKN150 BKN200=



000
FTUS46 KOTX 291130
TAFLWS
TAF
KLWS 291130Z 2912/3012 VRB03KT P6SM SCT120 BKN200
     FM292000 31005KT P6SM SCT100 SCT200
     FM300300 15003KT P6SM BKN150 BKN200=



000
FTUS46 KOTX 291130
TAFSFF
TAF
KSFF 291130Z 2912/3012 VRB03KT P6SM SCT120 OVC150
     FM291800 21008KT P6SM FEW060 SCT120 SCT200
     FM300200 VRB02KT P6SM BKN150 BKN200=



000
FTUS46 KOTX 291130
TAFCOE
TAF
KCOE 291130Z 2912/3012 16007KT P6SM SCT120 OVC150
     FM291800 21009KT P6SM SCT050 SCT110 BKN200
     FM300200 15005KT P6SM BKN150 BKN200
      AMD LTD TO CLD AND VIS=



000
FTUS46 KOTX 291130
TAFSFF
TAF
KSFF 291130Z 2912/3012 VRB03KT P6SM SCT120 OVC150
     FM291800 21008KT P6SM FEW060 SCT120 SCT200
     FM300200 VRB02KT P6SM BKN150 BKN200=



000
FTUS46 KOTX 290520
TAFGEG
TAF
KGEG 290520Z 2906/3006 21010KT P6SM SCT200
     FM290800 18008KT P6SM SCT120 BKN150
     FM291900 22011KT P6SM SCT060 BKN100
     FM300300 18005KT P6SM BKN150=



000
FTUS46 KOTX 290520
TAFPUW
TAF
KPUW 290520Z 2906/3006 13005KT P6SM SCT250
     FM291700 19008KT P6SM SCT080 BKN200
     FM292000 24011KT P6SM SCT080 BKN150
     FM300200 14004KT P6SM BKN200=



000
FTUS46 KOTX 290520
TAFLWS
TAF
KLWS 290520Z 2906/3006 12003KT P6SM SCT250
     FM291200 12005KT P6SM SCT100 BKN150
     FM292000 28006KT P6SM SCT090 BKN150
     FM300300 15003KT P6SM BKN200=



000
FTUS46 KOTX 290520
TAFEAT
TAF
KEAT 290520Z 2906/3006 30010KT P6SM SCT150
     FM291100 28008KT P6SM SCT100 BKN150=



000
FTUS46 KOTX 290520
TAFMWH
TAF
KMWH 290520Z 2906/3006 23008KT P6SM SCT150
     FM291100 VRB04KT P6SM BKN100 OVC150
     FM291800 20008KT P6SM SCT080 BKN150=



000
FTUS46 KOTX 290520
TAFPUW
TAF
KPUW 290520Z 2906/3006 13005KT P6SM SCT250
     FM291700 19008KT P6SM SCT080 BKN200
     FM292000 24011KT P6SM SCT080 BKN150
     FM300200 14004KT P6SM BKN200=



000
FTUS46 KOTX 290520
TAFLWS
TAF
KLWS 290520Z 2906/3006 12003KT P6SM SCT250
     FM291200 12005KT P6SM SCT100 BKN150
     FM292000 28006KT P6SM SCT090 BKN150
     FM300300 15003KT P6SM BKN200=



000
FTUS46 KOTX 290520
TAFCOE
TAF
KCOE 290520Z 2906/3006 16010KT P6SM SCT250
     FM290800 16007KT P6SM SCT120 BKN150
     FM291800 21009KT P6SM SCT060 BKN100
     FM300200 15005KT P6SM BKN150
      AMD LTD TO CLD AND VIS=



000
FTUS46 KOTX 290520
TAFMWH
TAF
KMWH 290520Z 2906/3006 23008KT P6SM SCT150
     FM291100 VRB04KT P6SM BKN100 OVC150
     FM291800 20008KT P6SM SCT080 BKN150=



000
FTUS46 KOTX 290520
TAFCOE
TAF
KCOE 290520Z 2906/3006 16010KT P6SM SCT250
     FM290800 16007KT P6SM SCT120 BKN150
     FM291800 21009KT P6SM SCT060 BKN100
     FM300200 15005KT P6SM BKN150
      AMD LTD TO CLD AND VIS=



000
FTUS46 KOTX 290520
TAFGEG
TAF
KGEG 290520Z 2906/3006 21010KT P6SM SCT200
     FM290800 18008KT P6SM SCT120 BKN150
     FM291900 22011KT P6SM SCT060 BKN100
     FM300300 18005KT P6SM BKN150=



000
FTUS46 KOTX 290520
TAFEAT
TAF
KEAT 290520Z 2906/3006 30010KT P6SM SCT150
     FM291100 28008KT P6SM SCT100 BKN150=



000
FTUS46 KOTX 290520
TAFSFF
TAF
KSFF 290520Z 2906/3006 VRB02KT P6SM SCT250
     FM290800 VRB02KT P6SM SCT120 BKN150
     FM291900 21009KT P6SM SCT060 BKN100
     FM300300 VRB02KT P6SM BKN150=



000
FTUS46 KOTX 290520
TAFMWH
TAF
KMWH 290520Z 2906/3006 23008KT P6SM SCT150
     FM291100 VRB04KT P6SM BKN100 OVC150
     FM291800 20008KT P6SM SCT080 BKN150=



000
FTUS46 KOTX 290520
TAFLWS
TAF
KLWS 290520Z 2906/3006 12003KT P6SM SCT250
     FM291200 12005KT P6SM SCT100 BKN150
     FM292000 28006KT P6SM SCT090 BKN150
     FM300300 15003KT P6SM BKN200=



000
FTUS46 KOTX 290520
TAFGEG
TAF
KGEG 290520Z 2906/3006 21010KT P6SM SCT200
     FM290800 18008KT P6SM SCT120 BKN150
     FM291900 22011KT P6SM SCT060 BKN100
     FM300300 18005KT P6SM BKN150=



000
FTUS46 KOTX 290520
TAFEAT
TAF
KEAT 290520Z 2906/3006 30010KT P6SM SCT150
     FM291100 28008KT P6SM SCT100 BKN150=



000
FTUS46 KOTX 290520
TAFCOE
TAF
KCOE 290520Z 2906/3006 16010KT P6SM SCT250
     FM290800 16007KT P6SM SCT120 BKN150
     FM291800 21009KT P6SM SCT060 BKN100
     FM300200 15005KT P6SM BKN150
      AMD LTD TO CLD AND VIS=



000
FTUS46 KOTX 290520
TAFSFF
TAF
KSFF 290520Z 2906/3006 VRB02KT P6SM SCT250
     FM290800 VRB02KT P6SM SCT120 BKN150
     FM291900 21009KT P6SM SCT060 BKN100
     FM300300 VRB02KT P6SM BKN150=



000
FTUS46 KOTX 290520
TAFSFF
TAF
KSFF 290520Z 2906/3006 VRB02KT P6SM SCT250
     FM290800 VRB02KT P6SM SCT120 BKN150
     FM291900 21009KT P6SM SCT060 BKN100
     FM300300 VRB02KT P6SM BKN150=



000
FTUS46 KOTX 290520
TAFPUW
TAF
KPUW 290520Z 2906/3006 13005KT P6SM SCT250
     FM291700 19008KT P6SM SCT080 BKN200
     FM292000 24011KT P6SM SCT080 BKN150
     FM300200 14004KT P6SM BKN200=



000
FTUS46 KOTX 290520
TAFGEG
TAF
KGEG 290520Z 2906/3006 21010KT P6SM SCT200
     FM290800 18008KT P6SM SCT120 BKN150
     FM291900 22011KT P6SM SCT060 BKN100
     FM300300 18005KT P6SM BKN150=



000
FTUS46 KOTX 290421 AAA
TAFCOE
TAF AMD
KCOE 290421Z 2904/2924 17014KT P6SM SCT250
     FM290700 18007KT P6SM SCT120 BKN150
     FM291000 13005KT P6SM SCT120 BKN150
     FM291800 21009KT P6SM SCT060 BKN100
      AMD LTD TO CLD AND VIS=



000
FTUS46 KOTX 290421 AAA
TAFCOE
TAF AMD
KCOE 290421Z 2904/2924 17014KT P6SM SCT250
     FM290700 18007KT P6SM SCT120 BKN150
     FM291000 13005KT P6SM SCT120 BKN150
     FM291800 21009KT P6SM SCT060 BKN100
      AMD LTD TO CLD AND VIS=



000
FTUS46 KOTX 282324
TAFMWH
TAF
KMWH 282324Z 2900/2924 25011G18KT P6SM SCT200
     FM290300 23008KT P6SM SCT150
     FM291100 VRB04KT P6SM BKN100 OVC150
     FM291800 20008KT P6SM SCT080 BKN150=



000
FTUS46 KOTX 282324
TAFLWS
TAF
KLWS 282324Z 2900/2924 28014G20KT P6SM SCT050 BKN200
     FM290200 24008KT P6SM SCT250
     FM290400 15003KT P6SM SCT250
     FM291500 13003KT P6SM SCT100 BKN200
     FM292000 28006KT P6SM SCT100 BKN150=



000
FTUS46 KOTX 282324
TAFPUW
TAF
KPUW 282324Z 2900/2924 25019G26KT P6SM SCT050 BKN200
     FM290200 24008KT P6SM SCT250
     FM290700 13005KT P6SM SCT250
     FM291500 15005KT P6SM SCT100 BKN200
     FM292000 21011KT P6SM SCT100 BKN150=



000
FTUS46 KOTX 282324
TAFSFF
TAF
KSFF 282324Z 2900/2924 24015G25KT P6SM SCT050 BKN200
     FM290100 23008KT P6SM SCT250
     FM290700 18005KT P6SM SCT120 BKN150
     FM291900 21009KT P6SM SCT060 BKN100=



000
FTUS46 KOTX 282324
TAFLWS
TAF
KLWS 282324Z 2900/2924 28014G20KT P6SM SCT050 BKN200
     FM290200 24008KT P6SM SCT250
     FM290400 15003KT P6SM SCT250
     FM291500 13003KT P6SM SCT100 BKN200
     FM292000 28006KT P6SM SCT100 BKN150=



000
FTUS46 KOTX 282324
TAFPUW
TAF
KPUW 282324Z 2900/2924 25019G26KT P6SM SCT050 BKN200
     FM290200 24008KT P6SM SCT250
     FM290700 13005KT P6SM SCT250
     FM291500 15005KT P6SM SCT100 BKN200
     FM292000 21011KT P6SM SCT100 BKN150=



000
FTUS46 KOTX 282324
TAFGEG
TAF
KGEG 282324Z 2900/2924 24020G28KT P6SM SCT050 BKN200
     FM290200 22010KT P6SM SCT250
     FM290700 18008KT P6SM SCT120 BKN150
     FM291900 20011KT P6SM SCT060 BKN100=



000
FTUS46 KOTX 282324
TAFCOE
TAF
KCOE 282324Z 2900/2924 24016G25KT P6SM SCT050 BKN070
     FM290200 23009KT P6SM SCT250
     FM290700 18005KT P6SM SCT120 BKN150
     FM291000 13005KT P6SM SCT120 BKN150
     FM291800 21009KT P6SM SCT060 BKN100
      AMD LTD TO CLD AND VIS=



000
FTUS46 KOTX 282324
TAFSFF
TAF
KSFF 282324Z 2900/2924 24015G25KT P6SM SCT050 BKN200
     FM290100 23008KT P6SM SCT250
     FM290700 18005KT P6SM SCT120 BKN150
     FM291900 21009KT P6SM SCT060 BKN100=



000
FTUS46 KOTX 282324
TAFEAT
TAF
KEAT 282324Z 2900/2924 30014G20KT P6SM SCT200
     FM290400 30010KT P6SM SCT150
     FM291100 28008KT P6SM SCT100 BKN150=



000
FTUS46 KOTX 282324
TAFEAT
TAF
KEAT 282324Z 2900/2924 30014G20KT P6SM SCT200
     FM290400 30010KT P6SM SCT150
     FM291100 28008KT P6SM SCT100 BKN150=



000
FTUS46 KOTX 282324
TAFCOE
TAF
KCOE 282324Z 2900/2924 24016G25KT P6SM SCT050 BKN070
     FM290200 23009KT P6SM SCT250
     FM290700 18005KT P6SM SCT120 BKN150
     FM291000 13005KT P6SM SCT120 BKN150
     FM291800 21009KT P6SM SCT060 BKN100
      AMD LTD TO CLD AND VIS=



000
FTUS46 KOTX 282324
TAFMWH
TAF
KMWH 282324Z 2900/2924 25011G18KT P6SM SCT200
     FM290300 23008KT P6SM SCT150
     FM291100 VRB04KT P6SM BKN100 OVC150
     FM291800 20008KT P6SM SCT080 BKN150=



000
FTUS46 KOTX 282324
TAFGEG
TAF
KGEG 282324Z 2900/2924 24020G28KT P6SM SCT050 BKN200
     FM290200 22010KT P6SM SCT250
     FM290700 18008KT P6SM SCT120 BKN150
     FM291900 20011KT P6SM SCT060 BKN100=



000
FTUS46 KOTX 281739
TAFLWS
TAF
KLWS 281739Z 2818/2918 27020G29KT P6SM SCT060
     FM282300 27013G20KT P6SM SCT060
     FM290200 15004KT P6SM SKC
     FM291500 12004KT P6SM BKN070=



000
FTUS46 KOTX 281739
TAFPUW
TAF
KPUW 281739Z 2818/2918 25024G39KT P6SM SCT025
     FM282100 25022G30KT P6SM BKN040
     FM282300 25019G26KT P6SM SCT050
     FM290300 13005KT P6SM SKC
     FM291500 08009KT P6SM BKN070=



000
FTUS46 KOTX 281739
TAFEAT
TAF
KEAT 281739Z 2818/2918 28020G28KT P6SM SKC
     FM282200 29014G24KT P6SM FEW070
     FM290400 30010KT P6SM SCT100 BKN130
     FM291300 30008KT P6SM BKN100=



000
FTUS46 KOTX 281739
TAFMWH
TAF
KMWH 281739Z 2818/2918 22022G32KT P6SM SKC
     FM282100 25014G22KT P6SM SKC
     FM290200 24008KT P6SM SCT130
     FM291400 15005KT P6SM BKN100=



000
FTUS46 KOTX 281739
TAFGEG
TAF
KGEG 281739Z 2818/2918 21026G33KT P6SM FEW025 SCT060
     FM282100 24019G30KT P6SM BKN040
     FM282300 24016G22KT P6SM SCT050
     FM290200 22010KT P6SM SCT250
     FM291500 17008KT P6SM BKN070=



000
FTUS46 KOTX 281739
TAFSFF
TAF
KSFF 281739Z 2818/2918 24019G28KT P6SM SCT025 SCT060
     FM282100 24018G28KT P6SM SCT050
     FM290100 23010KT P6SM FEW250
     FM290500 22004KT P6SM SCT100 BKN200
     FM291500 VRB04KT P6SM BKN070=



000
FTUS46 KOTX 281739
TAFCOE
TAF
KCOE 281739Z 2818/2918 22025G35KT P6SM VCSH SCT025 BKN060
     FM282100 24020G26KT P6SM VCSH BKN035
     FM290200 20007KT P6SM FEW250
     FM290700 15005KT P6SM SCT100 BKN200
     FM291500 12004KT P6SM BKN070
      AMD LTD TO CLD AND VIS=



000
FTUS46 KOTX 281739
TAFLWS
TAF
KLWS 281739Z 2818/2918 27020G29KT P6SM SCT060
     FM282300 27013G20KT P6SM SCT060
     FM290200 15004KT P6SM SKC
     FM291500 12004KT P6SM BKN070=



000
FTUS46 KOTX 281739
TAFMWH
TAF
KMWH 281739Z 2818/2918 22022G32KT P6SM SKC
     FM282100 25014G22KT P6SM SKC
     FM290200 24008KT P6SM SCT130
     FM291400 15005KT P6SM BKN100=



000
FTUS46 KOTX 281739
TAFPUW
TAF
KPUW 281739Z 2818/2918 25024G39KT P6SM SCT025
     FM282100 25022G30KT P6SM BKN040
     FM282300 25019G26KT P6SM SCT050
     FM290300 13005KT P6SM SKC
     FM291500 08009KT P6SM BKN070=



000
FTUS46 KOTX 281739
TAFEAT
TAF
KEAT 281739Z 2818/2918 28020G28KT P6SM SKC
     FM282200 29014G24KT P6SM FEW070
     FM290400 30010KT P6SM SCT100 BKN130
     FM291300 30008KT P6SM BKN100=



000
FTUS46 KOTX 281739
TAFSFF
TAF
KSFF 281739Z 2818/2918 24019G28KT P6SM SCT025 SCT060
     FM282100 24018G28KT P6SM SCT050
     FM290100 23010KT P6SM FEW250
     FM290500 22004KT P6SM SCT100 BKN200
     FM291500 VRB04KT P6SM BKN070=



000
FTUS46 KOTX 281739
TAFGEG
TAF
KGEG 281739Z 2818/2918 21026G33KT P6SM FEW025 SCT060
     FM282100 24019G30KT P6SM BKN040
     FM282300 24016G22KT P6SM SCT050
     FM290200 22010KT P6SM SCT250
     FM291500 17008KT P6SM BKN070=



000
FTUS46 KOTX 281739
TAFCOE
TAF
KCOE 281739Z 2818/2918 22025G35KT P6SM VCSH SCT025 BKN060
     FM282100 24020G26KT P6SM VCSH BKN035
     FM290200 20007KT P6SM FEW250
     FM290700 15005KT P6SM SCT100 BKN200
     FM291500 12004KT P6SM BKN070
      AMD LTD TO CLD AND VIS=



000
FTUS46 KOTX 281739
TAFLWS
TAF
KLWS 281739Z 2818/2918 27020G29KT P6SM SCT060
     FM282300 27013G20KT P6SM SCT060
     FM290200 15004KT P6SM SKC
     FM291500 12004KT P6SM BKN070=



000
FTUS46 KOTX 281739
TAFGEG
TAF
KGEG 281739Z 2818/2918 21026G33KT P6SM FEW025 SCT060
     FM282100 24019G30KT P6SM BKN040
     FM282300 24016G22KT P6SM SCT050
     FM290200 22010KT P6SM SCT250
     FM291500 17008KT P6SM BKN070=



000
FTUS46 KOTX 281739
TAFPUW
TAF
KPUW 281739Z 2818/2918 25024G39KT P6SM SCT025
     FM282100 25022G30KT P6SM BKN040
     FM282300 25019G26KT P6SM SCT050
     FM290300 13005KT P6SM SKC
     FM291500 08009KT P6SM BKN070=



000
FTUS46 KOTX 281739
TAFCOE
TAF
KCOE 281739Z 2818/2918 22025G35KT P6SM VCSH SCT025 BKN060
     FM282100 24020G26KT P6SM VCSH BKN035
     FM290200 20007KT P6SM FEW250
     FM290700 15005KT P6SM SCT100 BKN200
     FM291500 12004KT P6SM BKN070
      AMD LTD TO CLD AND VIS=



000
FTUS46 KOTX 281739
TAFMWH
TAF
KMWH 281739Z 2818/2918 22022G32KT P6SM SKC
     FM282100 25014G22KT P6SM SKC
     FM290200 24008KT P6SM SCT130
     FM291400 15005KT P6SM BKN100=



000
FTUS46 KOTX 281739
TAFEAT
TAF
KEAT 281739Z 2818/2918 28020G28KT P6SM SKC
     FM282200 29014G24KT P6SM FEW070
     FM290400 30010KT P6SM SCT100 BKN130
     FM291300 30008KT P6SM BKN100=



000
FTUS46 KOTX 281739
TAFEAT
TAF
KEAT 281739Z 2818/2918 28020G28KT P6SM SKC
     FM282200 29014G24KT P6SM FEW070
     FM290400 30010KT P6SM SCT100 BKN130
     FM291300 30008KT P6SM BKN100=



000
FTUS46 KOTX 281739
TAFPUW
TAF
KPUW 281739Z 2818/2918 25024G39KT P6SM SCT025
     FM282100 25022G30KT P6SM BKN040
     FM282300 25019G26KT P6SM SCT050
     FM290300 13005KT P6SM SKC
     FM291500 08009KT P6SM BKN070=



000
FTUS46 KOTX 281739
TAFSFF
TAF
KSFF 281739Z 2818/2918 24019G28KT P6SM SCT025 SCT060
     FM282100 24018G28KT P6SM SCT050
     FM290100 23010KT P6SM FEW250
     FM290500 22004KT P6SM SCT100 BKN200
     FM291500 VRB04KT P6SM BKN070=



000
FTUS46 KOTX 281739
TAFSFF
TAF
KSFF 281739Z 2818/2918 24019G28KT P6SM SCT025 SCT060
     FM282100 24018G28KT P6SM SCT050
     FM290100 23010KT P6SM FEW250
     FM290500 22004KT P6SM SCT100 BKN200
     FM291500 VRB04KT P6SM BKN070=



000
FTUS46 KOTX 281739
TAFCOE
TAF
KCOE 281739Z 2818/2918 22025G35KT P6SM VCSH SCT025 BKN060
     FM282100 24020G26KT P6SM VCSH BKN035
     FM290200 20007KT P6SM FEW250
     FM290700 15005KT P6SM SCT100 BKN200
     FM291500 12004KT P6SM BKN070
      AMD LTD TO CLD AND VIS=



000
FTUS46 KOTX 281739
TAFMWH
TAF
KMWH 281739Z 2818/2918 22022G32KT P6SM SKC
     FM282100 25014G22KT P6SM SKC
     FM290200 24008KT P6SM SCT130
     FM291400 15005KT P6SM BKN100=



000
FTUS46 KOTX 281739
TAFGEG
TAF
KGEG 281739Z 2818/2918 21026G33KT P6SM FEW025 SCT060
     FM282100 24019G30KT P6SM BKN040
     FM282300 24016G22KT P6SM SCT050
     FM290200 22010KT P6SM SCT250
     FM291500 17008KT P6SM BKN070=



000
FTUS46 KOTX 281739
TAFLWS
TAF
KLWS 281739Z 2818/2918 27020G29KT P6SM SCT060
     FM282300 27013G20KT P6SM SCT060
     FM290200 15004KT P6SM SKC
     FM291500 12004KT P6SM BKN070=



000
FTUS46 KOTX 281355 AAA
TAFPUW
TAF AMD
KPUW 281355Z 2814/2912 25026G37KT P6SM SCT020 BKN045
     FM282000 25022G30KT P6SM BKN050
     FM282200 25019G26KT P6SM SCT050
     FM290130 24009KT P6SM SKC=



000
FTUS46 KOTX 281355 AAA
TAFPUW
TAF AMD
KPUW 281355Z 2814/2912 25026G37KT P6SM SCT020 BKN045
     FM282000 25022G30KT P6SM BKN050
     FM282200 25019G26KT P6SM SCT050
     FM290130 24009KT P6SM SKC=



000
FTUS46 KOTX 281355 AAA
TAFCOE
TAF AMD
KCOE 281355Z 2814/2912 22021G28KT P6SM SCT030 BKN050
     FM281800 24018G25KT P6SM BKN035 BKN060
     FM282100 24017G22KT P6SM SCT045
     FM290200 20007KT P6SM FEW250
     FM290700 15005KT P6SM SCT100 BKN200
      AMD LTD TO CLD AND VIS=



000
FTUS46 KOTX 281355 AAA
TAFCOE
TAF AMD
KCOE 281355Z 2814/2912 22021G28KT P6SM SCT030 BKN050
     FM281800 24018G25KT P6SM BKN035 BKN060
     FM282100 24017G22KT P6SM SCT045
     FM290200 20007KT P6SM FEW250
     FM290700 15005KT P6SM SCT100 BKN200
      AMD LTD TO CLD AND VIS=



000
FTUS46 KOTX 281355 AAA
TAFPUW
TAF AMD
KPUW 281355Z 2814/2912 25026G37KT P6SM SCT020 BKN045
     FM282000 25022G30KT P6SM BKN050
     FM282200 25019G26KT P6SM SCT050
     FM290130 24009KT P6SM SKC=



000
FTUS46 KOTX 281355 AAA
TAFPUW
TAF AMD
KPUW 281355Z 2814/2912 25026G37KT P6SM SCT020 BKN045
     FM282000 25022G30KT P6SM BKN050
     FM282200 25019G26KT P6SM SCT050
     FM290130 24009KT P6SM SKC=



000
FTUS46 KOTX 281354 AAA
TAFGEG
TAF AMD
KGEG 281354Z 2814/2912 21026G33KT P6SM SCT020 SCT035 BKN060
     FM281800 24018G27KT P6SM BKN040
     FM282200 24016G22KT P6SM SCT050
     FM290200 22010KT P6SM SCT250=



000
FTUS46 KOTX 281354 AAA
TAFGEG
TAF AMD
KGEG 281354Z 2814/2912 21026G33KT P6SM SCT020 SCT035 BKN060
     FM281800 24018G27KT P6SM BKN040
     FM282200 24016G22KT P6SM SCT050
     FM290200 22010KT P6SM SCT250=



000
FTUS46 KOTX 281354 AAA
TAFGEG
TAF AMD
KGEG 281354Z 2814/2912 21026G33KT P6SM SCT020 SCT035 BKN060
     FM281800 24018G27KT P6SM BKN040
     FM282200 24016G22KT P6SM SCT050
     FM290200 22010KT P6SM SCT250=



000
FTUS46 KOTX 281354 AAA
TAFGEG
TAF AMD
KGEG 281354Z 2814/2912 21026G33KT P6SM SCT020 SCT035 BKN060
     FM281800 24018G27KT P6SM BKN040
     FM282200 24016G22KT P6SM SCT050
     FM290200 22010KT P6SM SCT250=



000
FTUS46 KOTX 281140
TAFMWH
TAF
KMWH 281140Z 2812/2912 25016KT P6SM SCT200
     FM281400 22020G30KT P6SM SKC
     FM282100 25014G22KT P6SM SKC
     FM290200 24008KT P6SM FEW250=



000
FTUS46 KOTX 281140
TAFEAT
TAF
KEAT 281140Z 2812/2912 28021G28KT P6SM SCT200
     FM282100 29017G25KT P6SM FEW250
     FM290400 30010KT P6SM SCT100 BKN150=



000
FTUS46 KOTX 281140
TAFGEG
TAF
KGEG 281140Z 2812/2912 21025G32KT P6SM VCSH BKN015 OVC040
     FM281400 21026G33KT P6SM SCT020 BKN035 BKN060
     FM281900 24018G27KT P6SM BKN040
     FM282200 24016G22KT P6SM SCT050
     FM290200 22010KT P6SM SCT250=



000
FTUS46 KOTX 281140
TAFPUW
TAF
KPUW 281140Z 2812/2912 24017G32KT P6SM -SHRA SCT015 BKN025 OVC050
     FM281300 25025G35KT P6SM BKN028
     FM281500 25026G37KT P6SM BKN035
     FM282000 25022G30KT P6SM BKN040
     FM282200 25019G26KT P6SM SCT040
     FM290130 24009KT P6SM SKC=



000
FTUS46 KOTX 281140
TAFCOE
TAF
KCOE 281140Z 2812/2912 21015KT 6SM -SHRA BKN025 OVC040
     FM281330 22021G28KT P6SM VCSH BKN028 BKN050
     FM281800 24018G25KT P6SM BKN035 BKN060
     FM282100 24017G22KT P6SM SCT045
     FM290200 20007KT P6SM FEW250
     FM290700 15005KT P6SM SCT100 BKN200
      AMD LTD TO CLD AND VIS=



000
FTUS46 KOTX 281140
TAFMWH
TAF
KMWH 281140Z 2812/2912 25016KT P6SM SCT200
     FM281400 22020G30KT P6SM SKC
     FM282100 25014G22KT P6SM SKC
     FM290200 24008KT P6SM FEW250=



000
FTUS46 KOTX 281140
TAFLWS
TAF
KLWS 281140Z 2812/2912 27008KT P6SM -SHRA BKN045 OVC060
     FM281400 27018G26KT P6SM BKN060 BKN120
     FM281800 26020G26KT P6SM SCT060
     FM282300 27013G20KT P6SM FEW070
     FM290200 15004KT P6SM SKC=



000
FTUS46 KOTX 281140
TAFSFF
TAF
KSFF 281140Z 2812/2912 22017G23KT P6SM VCSH BKN022 OVC050
     FM281300 23019G28KT P6SM SCT025 BKN040 BKN060
     FM282100 24018G28KT P6SM SCT050
     FM290100 23010KT P6SM FEW250
     FM290500 22004KT P6SM SCT100 BKN200=



000
FTUS46 KOTX 281140
TAFEAT
TAF
KEAT 281140Z 2812/2912 28021G28KT P6SM SCT200
     FM282100 29017G25KT P6SM FEW250
     FM290400 30010KT P6SM SCT100 BKN150=



000
FTUS46 KOTX 281140
TAFMWH
TAF
KMWH 281140Z 2812/2912 25016KT P6SM SCT200
     FM281400 22020G30KT P6SM SKC
     FM282100 25014G22KT P6SM SKC
     FM290200 24008KT P6SM FEW250=



000
FTUS46 KOTX 281140
TAFPUW
TAF
KPUW 281140Z 2812/2912 24017G32KT P6SM -SHRA SCT015 BKN025 OVC050
     FM281300 25025G35KT P6SM BKN028
     FM281500 25026G37KT P6SM BKN035
     FM282000 25022G30KT P6SM BKN040
     FM282200 25019G26KT P6SM SCT040
     FM290130 24009KT P6SM SKC=



000
FTUS46 KOTX 281140
TAFCOE
TAF
KCOE 281140Z 2812/2912 21015KT 6SM -SHRA BKN025 OVC040
     FM281330 22021G28KT P6SM VCSH BKN028 BKN050
     FM281800 24018G25KT P6SM BKN035 BKN060
     FM282100 24017G22KT P6SM SCT045
     FM290200 20007KT P6SM FEW250
     FM290700 15005KT P6SM SCT100 BKN200
      AMD LTD TO CLD AND VIS=



000
FTUS46 KOTX 281140
TAFSFF
TAF
KSFF 281140Z 2812/2912 22017G23KT P6SM VCSH BKN022 OVC050
     FM281300 23019G28KT P6SM SCT025 BKN040 BKN060
     FM282100 24018G28KT P6SM SCT050
     FM290100 23010KT P6SM FEW250
     FM290500 22004KT P6SM SCT100 BKN200=



000
FTUS46 KOTX 281140
TAFGEG
TAF
KGEG 281140Z 2812/2912 21025G32KT P6SM VCSH BKN015 OVC040
     FM281400 21026G33KT P6SM SCT020 BKN035 BKN060
     FM281900 24018G27KT P6SM BKN040
     FM282200 24016G22KT P6SM SCT050
     FM290200 22010KT P6SM SCT250=



000
FTUS46 KOTX 281140
TAFSFF
TAF
KSFF 281140Z 2812/2912 22017G23KT P6SM VCSH BKN022 OVC050
     FM281300 23019G28KT P6SM SCT025 BKN040 BKN060
     FM282100 24018G28KT P6SM SCT050
     FM290100 23010KT P6SM FEW250
     FM290500 22004KT P6SM SCT100 BKN200=



000
FTUS46 KOTX 281140
TAFMWH
TAF
KMWH 281140Z 2812/2912 25016KT P6SM SCT200
     FM281400 22020G30KT P6SM SKC
     FM282100 25014G22KT P6SM SKC
     FM290200 24008KT P6SM FEW250=



000
FTUS46 KOTX 281140
TAFSFF
TAF
KSFF 281140Z 2812/2912 22017G23KT P6SM VCSH BKN022 OVC050
     FM281300 23019G28KT P6SM SCT025 BKN040 BKN060
     FM282100 24018G28KT P6SM SCT050
     FM290100 23010KT P6SM FEW250
     FM290500 22004KT P6SM SCT100 BKN200=



000
FTUS46 KOTX 281140
TAFCOE
TAF
KCOE 281140Z 2812/2912 21015KT 6SM -SHRA BKN025 OVC040
     FM281330 22021G28KT P6SM VCSH BKN028 BKN050
     FM281800 24018G25KT P6SM BKN035 BKN060
     FM282100 24017G22KT P6SM SCT045
     FM290200 20007KT P6SM FEW250
     FM290700 15005KT P6SM SCT100 BKN200
      AMD LTD TO CLD AND VIS=



000
FTUS46 KOTX 281140
TAFPUW
TAF
KPUW 281140Z 2812/2912 24017G32KT P6SM -SHRA SCT015 BKN025 OVC050
     FM281300 25025G35KT P6SM BKN028
     FM281500 25026G37KT P6SM BKN035
     FM282000 25022G30KT P6SM BKN040
     FM282200 25019G26KT P6SM SCT040
     FM290130 24009KT P6SM SKC=



000
FTUS46 KOTX 281140
TAFLWS
TAF
KLWS 281140Z 2812/2912 27008KT P6SM -SHRA BKN045 OVC060
     FM281400 27018G26KT P6SM BKN060 BKN120
     FM281800 26020G26KT P6SM SCT060
     FM282300 27013G20KT P6SM FEW070
     FM290200 15004KT P6SM SKC=



000
FTUS46 KOTX 281140
TAFEAT
TAF
KEAT 281140Z 2812/2912 28021G28KT P6SM SCT200
     FM282100 29017G25KT P6SM FEW250
     FM290400 30010KT P6SM SCT100 BKN150=



000
FTUS46 KOTX 281140
TAFPUW
TAF
KPUW 281140Z 2812/2912 24017G32KT P6SM -SHRA SCT015 BKN025 OVC050
     FM281300 25025G35KT P6SM BKN028
     FM281500 25026G37KT P6SM BKN035
     FM282000 25022G30KT P6SM BKN040
     FM282200 25019G26KT P6SM SCT040
     FM290130 24009KT P6SM SKC=



000
FTUS46 KOTX 281140
TAFLWS
TAF
KLWS 281140Z 2812/2912 27008KT P6SM -SHRA BKN045 OVC060
     FM281400 27018G26KT P6SM BKN060 BKN120
     FM281800 26020G26KT P6SM SCT060
     FM282300 27013G20KT P6SM FEW070
     FM290200 15004KT P6SM SKC=



000
FTUS46 KOTX 281140
TAFEAT
TAF
KEAT 281140Z 2812/2912 28021G28KT P6SM SCT200
     FM282100 29017G25KT P6SM FEW250
     FM290400 30010KT P6SM SCT100 BKN150=



000
FTUS46 KOTX 281140
TAFGEG
TAF
KGEG 281140Z 2812/2912 21025G32KT P6SM VCSH BKN015 OVC040
     FM281400 21026G33KT P6SM SCT020 BKN035 BKN060
     FM281900 24018G27KT P6SM BKN040
     FM282200 24016G22KT P6SM SCT050
     FM290200 22010KT P6SM SCT250=



000
FTUS46 KOTX 281140
TAFGEG
TAF
KGEG 281140Z 2812/2912 21025G32KT P6SM VCSH BKN015 OVC040
     FM281400 21026G33KT P6SM SCT020 BKN035 BKN060
     FM281900 24018G27KT P6SM BKN040
     FM282200 24016G22KT P6SM SCT050
     FM290200 22010KT P6SM SCT250=



000
FTUS46 KOTX 281140
TAFCOE
TAF
KCOE 281140Z 2812/2912 21015KT 6SM -SHRA BKN025 OVC040
     FM281330 22021G28KT P6SM VCSH BKN028 BKN050
     FM281800 24018G25KT P6SM BKN035 BKN060
     FM282100 24017G22KT P6SM SCT045
     FM290200 20007KT P6SM FEW250
     FM290700 15005KT P6SM SCT100 BKN200
      AMD LTD TO CLD AND VIS=



000
FTUS46 KOTX 281140
TAFLWS
TAF
KLWS 281140Z 2812/2912 27008KT P6SM -SHRA BKN045 OVC060
     FM281400 27018G26KT P6SM BKN060 BKN120
     FM281800 26020G26KT P6SM SCT060
     FM282300 27013G20KT P6SM FEW070
     FM290200 15004KT P6SM SKC=



000
FTUS46 KOTX 280541 CCA
TAFMWH
TAF COR
KMWH 280541Z 2806/2906 20012KT P6SM -SHRA VCTS BKN080 OVC100CB
     FM280930 21017G25KT P6SM SCT090
     FM281400 22020G30KT P6SM SKC
     FM282100 25014G22KT P6SM SKC
     FM290200 24008KT P6SM FEW250=



000
FTUS46 KOTX 280541 CCA
TAFMWH
TAF COR
KMWH 280541Z 2806/2906 20012KT P6SM -SHRA VCTS BKN080 OVC100CB
     FM280930 21017G25KT P6SM SCT090
     FM281400 22020G30KT P6SM SKC
     FM282100 25014G22KT P6SM SKC
     FM290200 24008KT P6SM FEW250=



000
FTUS46 KOTX 280541 CCA
TAFMWH
TAF COR
KMWH 280541Z 2806/2906 20012KT P6SM -SHRA VCTS BKN080 OVC100CB
     FM280930 21017G25KT P6SM SCT090
     FM281400 22020G30KT P6SM SKC
     FM282100 25014G22KT P6SM SKC
     FM290200 24008KT P6SM FEW250=



000
FTUS46 KOTX 280541 CCA
TAFMWH
TAF COR
KMWH 280541Z 2806/2906 20012KT P6SM -SHRA VCTS BKN080 OVC100CB
     FM280930 21017G25KT P6SM SCT090
     FM281400 22020G30KT P6SM SKC
     FM282100 25014G22KT P6SM SKC
     FM290200 24008KT P6SM FEW250=



000
FTUS46 KOTX 280540
TAFPUW
TAF
KPUW 280540Z 2806/2906 VRB05KT P6SM VCTS SCT060 BKN080CB
      TEMPO 2806/2808 -TSRA BKN050 OVC080CB
     FM280900 24012G20KT P6SM -SHRA VCTS SCT020 BKN040 OVC080CB
     FM281100 24020G30KT P6SM SHRA BKN018 OVC030
     FM281300 25025G35KT P6SM BKN020
     FM282000 25022G30KT P6SM BKN035
     FM290200 24005KT P6SM SKC=



000
FTUS46 KOTX 280540
TAFSFF
TAF
KSFF 280540Z 2806/2906 23009KT P6SM -SHRA VCTS SCT050 BKN080CB
      OVC100
     FM280900 23014G23KT P6SM -SHRA FEW025 BKN040 OVC060
     FM281100 23016G25KT P6SM SHRA BKN025 OVC040
     FM281300 23023G32KT P6SM FEW025 SCT080
     FM282100 24018G28KT P6SM SCT050
     FM290200 23004KT P6SM FEW250=



000
FTUS46 KOTX 280540
TAFMWH
TAF
KMWH 280540Z 2806/2906 22012G18KT P6SM -SHRA VCTS BKN080 OVC100CB
     FM280930 21017G25KT P6SM SCT090
     FM281400 24020G30KT P6SM SKC
     FM282100 26014G22KT P6SM SKC
     FM290200 24008KT P6SM FEW250=



000
FTUS46 KOTX 280540
TAFSFF
TAF
KSFF 280540Z 2806/2906 23009KT P6SM -SHRA VCTS SCT050 BKN080CB
      OVC100
     FM280900 23014G23KT P6SM -SHRA FEW025 BKN040 OVC060
     FM281100 23016G25KT P6SM SHRA BKN025 OVC040
     FM281300 23023G32KT P6SM FEW025 SCT080
     FM282100 24018G28KT P6SM SCT050
     FM290200 23004KT P6SM FEW250=



000
FTUS46 KOTX 280540
TAFCOE
TAF
KCOE 280540Z 2806/2906 19006KT P6SM -SHRA VCTS SCT050 BKN080CB
      OVC100
     FM281000 23022G32KT P6SM SHRA BKN015 OVC025
     FM281500 24025G35KT P6SM BKN020
     FM282100 24021G30KT P6SM VCSH BKN050
     FM290200 20007KT P6SM FEW250
      AMD LTD TO CLD AND VIS=



000
FTUS46 KOTX 280540
TAFLWS
TAF
KLWS 280540Z 2806/2906 23012KT P6SM -TSRA BKN080CB OVC100
     FM280900 24014G24KT P6SM -SHRA BKN040 OVC060
     FM281300 27022G33KT P6SM FEW070
     FM282200 27016G24KT P6SM SCT060
     FM290200 15004KT P6SM SKC=



000
FTUS46 KOTX 280540
TAFMWH
TAF
KMWH 280540Z 2806/2906 22012G18KT P6SM -SHRA VCTS BKN080 OVC100CB
     FM280930 21017G25KT P6SM SCT090
     FM281400 24020G30KT P6SM SKC
     FM282100 26014G22KT P6SM SKC
     FM290200 24008KT P6SM FEW250=



000
FTUS46 KOTX 280540
TAFPUW
TAF
KPUW 280540Z 2806/2906 VRB05KT P6SM VCTS SCT060 BKN080CB
      TEMPO 2806/2808 -TSRA BKN050 OVC080CB
     FM280900 24012G20KT P6SM -SHRA VCTS SCT020 BKN040 OVC080CB
     FM281100 24020G30KT P6SM SHRA BKN018 OVC030
     FM281300 25025G35KT P6SM BKN020
     FM282000 25022G30KT P6SM BKN035
     FM290200 24005KT P6SM SKC=



000
FTUS46 KOTX 280540
TAFGEG
TAF
KGEG 280540Z 2806/2906 20009KT P6SM -SHRA VCTS SCT050 BKN080CB
      OVC100
     FM280900 21022G32KT P6SM -SHRA FEW020 BKN040 OVC060
     FM281100 23025G40KT P6SM SHRA BKN020 OVC040
     FM281300 23025G40KT P6SM FEW020 SCT080
     FM282100 24021G29KT P6SM SCT045
     FM290200 21010KT P6SM FEW250=



000
FTUS46 KOTX 280540
TAFEAT
TAF
KEAT 280540Z 2806/2906 31014KT P6SM FEW080 BKN150 OVC200
     FM280900 30020G30KT P6SM SKC
     FM282100 29017G25KT P6SM FEW250
     FM290400 30010KT P6SM SCT100 BKN150=



000
FTUS46 KOTX 280540
TAFEAT
TAF
KEAT 280540Z 2806/2906 31014KT P6SM FEW080 BKN150 OVC200
     FM280900 30020G30KT P6SM SKC
     FM282100 29017G25KT P6SM FEW250
     FM290400 30010KT P6SM SCT100 BKN150=



000
FTUS46 KOTX 280540
TAFLWS
TAF
KLWS 280540Z 2806/2906 23012KT P6SM -TSRA BKN080CB OVC100
     FM280900 24014G24KT P6SM -SHRA BKN040 OVC060
     FM281300 27022G33KT P6SM FEW070
     FM282200 27016G24KT P6SM SCT060
     FM290200 15004KT P6SM SKC=



000
FTUS46 KOTX 280540
TAFCOE
TAF
KCOE 280540Z 2806/2906 19006KT P6SM -SHRA VCTS SCT050 BKN080CB
      OVC100
     FM281000 23022G32KT P6SM SHRA BKN015 OVC025
     FM281500 24025G35KT P6SM BKN020
     FM282100 24021G30KT P6SM VCSH BKN050
     FM290200 20007KT P6SM FEW250
      AMD LTD TO CLD AND VIS=



000
FTUS46 KOTX 280540
TAFCOE
TAF
KCOE 280540Z 2806/2906 19006KT P6SM -SHRA VCTS SCT050 BKN080CB
      OVC100
     FM281000 23022G32KT P6SM SHRA BKN015 OVC025
     FM281500 24025G35KT P6SM BKN020
     FM282100 24021G30KT P6SM VCSH BKN050
     FM290200 20007KT P6SM FEW250
      AMD LTD TO CLD AND VIS=



000
FTUS46 KOTX 280540
TAFGEG
TAF
KGEG 280540Z 2806/2906 20009KT P6SM -SHRA VCTS SCT050 BKN080CB
      OVC100
     FM280900 21022G32KT P6SM -SHRA FEW020 BKN040 OVC060
     FM281100 23025G40KT P6SM SHRA BKN020 OVC040
     FM281300 23025G40KT P6SM FEW020 SCT080
     FM282100 24021G29KT P6SM SCT045
     FM290200 21010KT P6SM FEW250=



000
FTUS46 KOTX 280540
TAFSFF
TAF
KSFF 280540Z 2806/2906 23009KT P6SM -SHRA VCTS SCT050 BKN080CB
      OVC100
     FM280900 23014G23KT P6SM -SHRA FEW025 BKN040 OVC060
     FM281100 23016G25KT P6SM SHRA BKN025 OVC040
     FM281300 23023G32KT P6SM FEW025 SCT080
     FM282100 24018G28KT P6SM SCT050
     FM290200 23004KT P6SM FEW250=



000
FTUS46 KOTX 280540
TAFPUW
TAF
KPUW 280540Z 2806/2906 VRB05KT P6SM VCTS SCT060 BKN080CB
      TEMPO 2806/2808 -TSRA BKN050 OVC080CB
     FM280900 24012G20KT P6SM -SHRA VCTS SCT020 BKN040 OVC080CB
     FM281100 24020G30KT P6SM SHRA BKN018 OVC030
     FM281300 25025G35KT P6SM BKN020
     FM282000 25022G30KT P6SM BKN035
     FM290200 24005KT P6SM SKC=



000
FTUS46 KOTX 280540
TAFPUW
TAF
KPUW 280540Z 2806/2906 VRB05KT P6SM VCTS SCT060 BKN080CB
      TEMPO 2806/2808 -TSRA BKN050 OVC080CB
     FM280900 24012G20KT P6SM -SHRA VCTS SCT020 BKN040 OVC080CB
     FM281100 24020G30KT P6SM SHRA BKN018 OVC030
     FM281300 25025G35KT P6SM BKN020
     FM282000 25022G30KT P6SM BKN035
     FM290200 24005KT P6SM SKC=



000
FTUS46 KOTX 280540
TAFEAT
TAF
KEAT 280540Z 2806/2906 31014KT P6SM FEW080 BKN150 OVC200
     FM280900 30020G30KT P6SM SKC
     FM282100 29017G25KT P6SM FEW250
     FM290400 30010KT P6SM SCT100 BKN150=



000
FTUS46 KOTX 280540
TAFMWH
TAF
KMWH 280540Z 2806/2906 22012G18KT P6SM -SHRA VCTS BKN080 OVC100CB
     FM280930 21017G25KT P6SM SCT090
     FM281400 24020G30KT P6SM SKC
     FM282100 26014G22KT P6SM SKC
     FM290200 24008KT P6SM FEW250=



000
FTUS46 KOTX 280540
TAFLWS
TAF
KLWS 280540Z 2806/2906 23012KT P6SM -TSRA BKN080CB OVC100
     FM280900 24014G24KT P6SM -SHRA BKN040 OVC060
     FM281300 27022G33KT P6SM FEW070
     FM282200 27016G24KT P6SM SCT060
     FM290200 15004KT P6SM SKC=



000
FTUS46 KOTX 280540
TAFEAT
TAF
KEAT 280540Z 2806/2906 31014KT P6SM FEW080 BKN150 OVC200
     FM280900 30020G30KT P6SM SKC
     FM282100 29017G25KT P6SM FEW250
     FM290400 30010KT P6SM SCT100 BKN150=



000
FTUS46 KOTX 280540
TAFCOE
TAF
KCOE 280540Z 2806/2906 19006KT P6SM -SHRA VCTS SCT050 BKN080CB
      OVC100
     FM281000 23022G32KT P6SM SHRA BKN015 OVC025
     FM281500 24025G35KT P6SM BKN020
     FM282100 24021G30KT P6SM VCSH BKN050
     FM290200 20007KT P6SM FEW250
      AMD LTD TO CLD AND VIS=



000
FTUS46 KOTX 280540
TAFGEG
TAF
KGEG 280540Z 2806/2906 20009KT P6SM -SHRA VCTS SCT050 BKN080CB
      OVC100
     FM280900 21022G32KT P6SM -SHRA FEW020 BKN040 OVC060
     FM281100 23025G40KT P6SM SHRA BKN020 OVC040
     FM281300 23025G40KT P6SM FEW020 SCT080
     FM282100 24021G29KT P6SM SCT045
     FM290200 21010KT P6SM FEW250=



000
FTUS46 KOTX 280540
TAFSFF
TAF
KSFF 280540Z 2806/2906 23009KT P6SM -SHRA VCTS SCT050 BKN080CB
      OVC100
     FM280900 23014G23KT P6SM -SHRA FEW025 BKN040 OVC060
     FM281100 23016G25KT P6SM SHRA BKN025 OVC040
     FM281300 23023G32KT P6SM FEW025 SCT080
     FM282100 24018G28KT P6SM SCT050
     FM290200 23004KT P6SM FEW250=



000
FTUS46 KOTX 280540
TAFLWS
TAF
KLWS 280540Z 2806/2906 23012KT P6SM -TSRA BKN080CB OVC100
     FM280900 24014G24KT P6SM -SHRA BKN040 OVC060
     FM281300 27022G33KT P6SM FEW070
     FM282200 27016G24KT P6SM SCT060
     FM290200 15004KT P6SM SKC=



000
FTUS46 KOTX 280540
TAFMWH
TAF
KMWH 280540Z 2806/2906 22012G18KT P6SM -SHRA VCTS BKN080 OVC100CB
     FM280930 21017G25KT P6SM SCT090
     FM281400 24020G30KT P6SM SKC
     FM282100 26014G22KT P6SM SKC
     FM290200 24008KT P6SM FEW250=



000
FTUS46 KOTX 280540
TAFGEG
TAF
KGEG 280540Z 2806/2906 20009KT P6SM -SHRA VCTS SCT050 BKN080CB
      OVC100
     FM280900 21022G32KT P6SM -SHRA FEW020 BKN040 OVC060
     FM281100 23025G40KT P6SM SHRA BKN020 OVC040
     FM281300 23025G40KT P6SM FEW020 SCT080
     FM282100 24021G29KT P6SM SCT045
     FM290200 21010KT P6SM FEW250=



000
FTUS46 KOTX 272344 CCA
TAFEAT
TAF COR
KEAT 272344Z 2800/2824 08006KT P6SM FEW060 BKN150
     FM280200 31010KT P6SM BKN150
     FM280800 29022G30KT P6SM SCT120
     FM281900 29017G25KT P6SM FEW200=



000
FTUS46 KOTX 272344 CCA
TAFEAT
TAF COR
KEAT 272344Z 2800/2824 08006KT P6SM FEW060 BKN150
     FM280200 31010KT P6SM BKN150
     FM280800 29022G30KT P6SM SCT120
     FM281900 29017G25KT P6SM FEW200=



000
FTUS46 KOTX 272339
TAFLWS
TAF
KLWS 272339Z 2800/2824 26006KT P6SM SKC
     FM280300 26010KT P6SM VCTS SCT060 BKN080CB
     FM280500 24012KT P6SM -TSRA BKN080CB OVC100
     FM280900 24019G30KT P6SM -SHRA BKN040 OVC060
     FM281300 27022G33KT P6SM FEW070
     FM282100 27016G24KT P6SM SCT060=



000
FTUS46 KOTX 272339
TAFMWH
TAF
KMWH 272339Z 2800/2824 24004KT P6SM SCT180
     FM280400 22011KT P6SM VCSH BKN080 OVC100
     FM280600 22012G18KT P6SM -SHRA BKN050 OVC070
     FM280900 21015G22KT P6SM SCT070
     FM281400 24020G30KT P6SM SCT090
     FM282100 26014G22KT P6SM SKC=



000
FTUS46 KOTX 272339
TAFEAT
TAF
KEAT 272339Z 2800/2824 29011KT P6SM SCT060 BKN150
     FM280800 29020G28KT P6SM SCT090=



000
FTUS46 KOTX 272339
TAFCOE
TAF
KCOE 272339Z 2800/2824 25006KT P6SM SCT050
     FM280200 13005KT P6SM FEW200
     FM280600 22010KT P6SM -SHRA SCT050 OVC080
     FM280900 23022G35KT P6SM -SHRA SCT020 OVC060
     FM281100 24025G40KT P6SM -SHRA FEW020 SCT060 BKN090
     FM282100 24021G30KT P6SM VCSH BKN050
      AMD LTD TO CLD AND VIS=



000
FTUS46 KOTX 272339
TAFSFF
TAF
KSFF 272339Z 2800/2824 20009G16KT P6SM FEW050
     FM280200 VRB04KT P6SM FEW120 BKN200
     FM280600 23009KT P6SM -SHRA SCT050 OVC080
     FM280800 23016G25KT P6SM -SHRA FEW025 SCT060 BKN080
     FM281230 23022G30KT P6SM FEW120
     FM282100 24018G28KT P6SM SCT050=



000
FTUS46 KOTX 272339
TAFGEG
TAF
KGEG 272339Z 2800/2824 20009G16KT P6SM FEW040 SCT250
     FM280200 20009KT P6SM FEW120 BKN200
     FM280600 22018G32KT P6SM -SHRA SCT050 OVC080
     FM280900 23025G40KT P6SM -SHRA FEW020 SCT060 BKN080
     FM281200 23027G42KT P6SM FEW110
     FM282100 24023G31KT P6SM SCT045=



000
FTUS46 KOTX 272339
TAFPUW
TAF
KPUW 272339Z 2800/2824 24004KT P6SM SCT150
     FM280600 24015G25KT P6SM -TSRA SCT030 OVC060CB
     FM280800 24017G30KT P6SM -TSRA SCT015 OVC030CB
     FM281000 24026G38KT P6SM -SHRA BKN018 OVC030
     FM281300 25024G35KT P6SM BKN020
     FM282000 25022G30KT P6SM BKN035=



000
FTUS46 KOTX 272339
TAFLWS
TAF
KLWS 272339Z 2800/2824 26006KT P6SM SKC
     FM280300 26010KT P6SM VCTS SCT060 BKN080CB
     FM280500 24012KT P6SM -TSRA BKN080CB OVC100
     FM280900 24019G30KT P6SM -SHRA BKN040 OVC060
     FM281300 27022G33KT P6SM FEW070
     FM282100 27016G24KT P6SM SCT060=



000
FTUS46 KOTX 272339
TAFSFF
TAF
KSFF 272339Z 2800/2824 20009G16KT P6SM FEW050
     FM280200 VRB04KT P6SM FEW120 BKN200
     FM280600 23009KT P6SM -SHRA SCT050 OVC080
     FM280800 23016G25KT P6SM -SHRA FEW025 SCT060 BKN080
     FM281230 23022G30KT P6SM FEW120
     FM282100 24018G28KT P6SM SCT050=



000
FTUS46 KOTX 272339
TAFPUW
TAF
KPUW 272339Z 2800/2824 24004KT P6SM SCT150
     FM280600 24015G25KT P6SM -TSRA SCT030 OVC060CB
     FM280800 24017G30KT P6SM -TSRA SCT015 OVC030CB
     FM281000 24026G38KT P6SM -SHRA BKN018 OVC030
     FM281300 25024G35KT P6SM BKN020
     FM282000 25022G30KT P6SM BKN035=



000
FTUS46 KOTX 272339
TAFMWH
TAF
KMWH 272339Z 2800/2824 24004KT P6SM SCT180
     FM280400 22011KT P6SM VCSH BKN080 OVC100
     FM280600 22012G18KT P6SM -SHRA BKN050 OVC070
     FM280900 21015G22KT P6SM SCT070
     FM281400 24020G30KT P6SM SCT090
     FM282100 26014G22KT P6SM SKC=



000
FTUS46 KOTX 272339
TAFCOE
TAF
KCOE 272339Z 2800/2824 25006KT P6SM SCT050
     FM280200 13005KT P6SM FEW200
     FM280600 22010KT P6SM -SHRA SCT050 OVC080
     FM280900 23022G35KT P6SM -SHRA SCT020 OVC060
     FM281100 24025G40KT P6SM -SHRA FEW020 SCT060 BKN090
     FM282100 24021G30KT P6SM VCSH BKN050
      AMD LTD TO CLD AND VIS=



000
FTUS46 KOTX 272339
TAFGEG
TAF
KGEG 272339Z 2800/2824 20009G16KT P6SM FEW040 SCT250
     FM280200 20009KT P6SM FEW120 BKN200
     FM280600 22018G32KT P6SM -SHRA SCT050 OVC080
     FM280900 23025G40KT P6SM -SHRA FEW020 SCT060 BKN080
     FM281200 23027G42KT P6SM FEW110
     FM282100 24023G31KT P6SM SCT045=



000
FTUS46 KOTX 272339
TAFEAT
TAF
KEAT 272339Z 2800/2824 29011KT P6SM SCT060 BKN150
     FM280800 29020G28KT P6SM SCT090=



000
FTUS46 KOTX 272339
TAFPUW
TAF
KPUW 272339Z 2800/2824 24004KT P6SM SCT150
     FM280600 24015G25KT P6SM -TSRA SCT030 OVC060CB
     FM280800 24017G30KT P6SM -TSRA SCT015 OVC030CB
     FM281000 24026G38KT P6SM -SHRA BKN018 OVC030
     FM281300 25024G35KT P6SM BKN020
     FM282000 25022G30KT P6SM BKN035=



000
FTUS46 KOTX 272339
TAFSFF
TAF
KSFF 272339Z 2800/2824 20009G16KT P6SM FEW050
     FM280200 VRB04KT P6SM FEW120 BKN200
     FM280600 23009KT P6SM -SHRA SCT050 OVC080
     FM280800 23016G25KT P6SM -SHRA FEW025 SCT060 BKN080
     FM281230 23022G30KT P6SM FEW120
     FM282100 24018G28KT P6SM SCT050=



000
FTUS46 KOTX 272339
TAFGEG
TAF
KGEG 272339Z 2800/2824 20009G16KT P6SM FEW040 SCT250
     FM280200 20009KT P6SM FEW120 BKN200
     FM280600 22018G32KT P6SM -SHRA SCT050 OVC080
     FM280900 23025G40KT P6SM -SHRA FEW020 SCT060 BKN080
     FM281200 23027G42KT P6SM FEW110
     FM282100 24023G31KT P6SM SCT045=



000
FTUS46 KOTX 272339
TAFCOE
TAF
KCOE 272339Z 2800/2824 25006KT P6SM SCT050
     FM280200 13005KT P6SM FEW200
     FM280600 22010KT P6SM -SHRA SCT050 OVC080
     FM280900 23022G35KT P6SM -SHRA SCT020 OVC060
     FM281100 24025G40KT P6SM -SHRA FEW020 SCT060 BKN090
     FM282100 24021G30KT P6SM VCSH BKN050
      AMD LTD TO CLD AND VIS=



000
FTUS46 KOTX 272339
TAFLWS
TAF
KLWS 272339Z 2800/2824 26006KT P6SM SKC
     FM280300 26010KT P6SM VCTS SCT060 BKN080CB
     FM280500 24012KT P6SM -TSRA BKN080CB OVC100
     FM280900 24019G30KT P6SM -SHRA BKN040 OVC060
     FM281300 27022G33KT P6SM FEW070
     FM282100 27016G24KT P6SM SCT060=



000
FTUS46 KOTX 272339
TAFCOE
TAF
KCOE 272339Z 2800/2824 25006KT P6SM SCT050
     FM280200 13005KT P6SM FEW200
     FM280600 22010KT P6SM -SHRA SCT050 OVC080
     FM280900 23022G35KT P6SM -SHRA SCT020 OVC060
     FM281100 24025G40KT P6SM -SHRA FEW020 SCT060 BKN090
     FM282100 24021G30KT P6SM VCSH BKN050
      AMD LTD TO CLD AND VIS=



000
FTUS46 KOTX 272339
TAFGEG
TAF
KGEG 272339Z 2800/2824 20009G16KT P6SM FEW040 SCT250
     FM280200 20009KT P6SM FEW120 BKN200
     FM280600 22018G32KT P6SM -SHRA SCT050 OVC080
     FM280900 23025G40KT P6SM -SHRA FEW020 SCT060 BKN080
     FM281200 23027G42KT P6SM FEW110
     FM282100 24023G31KT P6SM SCT045=



000
FTUS46 KOTX 272339
TAFMWH
TAF
KMWH 272339Z 2800/2824 24004KT P6SM SCT180
     FM280400 22011KT P6SM VCSH BKN080 OVC100
     FM280600 22012G18KT P6SM -SHRA BKN050 OVC070
     FM280900 21015G22KT P6SM SCT070
     FM281400 24020G30KT P6SM SCT090
     FM282100 26014G22KT P6SM SKC=



000
FTUS46 KOTX 272339
TAFEAT
TAF
KEAT 272339Z 2800/2824 29011KT P6SM SCT060 BKN150
     FM280800 29020G28KT P6SM SCT090=



000
FTUS46 KOTX 272339
TAFLWS
TAF
KLWS 272339Z 2800/2824 26006KT P6SM SKC
     FM280300 26010KT P6SM VCTS SCT060 BKN080CB
     FM280500 24012KT P6SM -TSRA BKN080CB OVC100
     FM280900 24019G30KT P6SM -SHRA BKN040 OVC060
     FM281300 27022G33KT P6SM FEW070
     FM282100 27016G24KT P6SM SCT060=



000
FTUS46 KOTX 272339
TAFPUW
TAF
KPUW 272339Z 2800/2824 24004KT P6SM SCT150
     FM280600 24015G25KT P6SM -TSRA SCT030 OVC060CB
     FM280800 24017G30KT P6SM -TSRA SCT015 OVC030CB
     FM281000 24026G38KT P6SM -SHRA BKN018 OVC030
     FM281300 25024G35KT P6SM BKN020
     FM282000 25022G30KT P6SM BKN035=



000
FTUS46 KOTX 272339
TAFMWH
TAF
KMWH 272339Z 2800/2824 24004KT P6SM SCT180
     FM280400 22011KT P6SM VCSH BKN080 OVC100
     FM280600 22012G18KT P6SM -SHRA BKN050 OVC070
     FM280900 21015G22KT P6SM SCT070
     FM281400 24020G30KT P6SM SCT090
     FM282100 26014G22KT P6SM SKC=



000
FTUS46 KOTX 272339
TAFEAT
TAF
KEAT 272339Z 2800/2824 29011KT P6SM SCT060 BKN150
     FM280800 29020G28KT P6SM SCT090=



000
FTUS46 KOTX 272339
TAFSFF
TAF
KSFF 272339Z 2800/2824 20009G16KT P6SM FEW050
     FM280200 VRB04KT P6SM FEW120 BKN200
     FM280600 23009KT P6SM -SHRA SCT050 OVC080
     FM280800 23016G25KT P6SM -SHRA FEW025 SCT060 BKN080
     FM281230 23022G30KT P6SM FEW120
     FM282100 24018G28KT P6SM SCT050=



000
FTUS46 KOTX 271751 CCA
TAFEAT
TAF COR
KEAT 271751Z 2718/2818 30004KT P6SM SCT150 SCT200
     FM272100 13007KT P6SM SCT110
     FM280000 29011KT P6SM SCT060 BKN150
     FM280800 29020G28KT P6SM SCT090=



000
FTUS46 KOTX 271751 CCA
TAFEAT
TAF COR
KEAT 271751Z 2718/2818 30004KT P6SM SCT150 SCT200
     FM272100 13007KT P6SM SCT110
     FM280000 29011KT P6SM SCT060 BKN150
     FM280800 29020G28KT P6SM SCT090=



000
FTUS46 KOTX 271751 CCA
TAFEAT
TAF COR
KEAT 271751Z 2718/2818 30004KT P6SM SCT150 SCT200
     FM272100 13007KT P6SM SCT110
     FM280000 29011KT P6SM SCT060 BKN150
     FM280800 29020G28KT P6SM SCT090=



000
FTUS46 KOTX 271748 CCA
TAFLWS
TAF COR
KLWS 271748Z 2718/2818 09009KT P6SM FEW200
     FM272300 24006KT P6SM SCT080
     FM280200 26010KT P6SM VCSH SCT060 BKN200
     FM280500 23015G29KT P6SM -TSRA OVC060CB
     FM280800 24019G38KT P6SM -TSRA OVC030CB=



000
FTUS46 KOTX 271748 CCA
TAFLWS
TAF COR
KLWS 271748Z 2718/2818 09009KT P6SM FEW200
     FM272300 24006KT P6SM SCT080
     FM280200 26010KT P6SM VCSH SCT060 BKN200
     FM280500 23015G29KT P6SM -TSRA OVC060CB
     FM280800 24019G38KT P6SM -TSRA OVC030CB=



000
FTUS46 KOTX 271748 CCA
TAFLWS
TAF COR
KLWS 271748Z 2718/2818 09009KT P6SM FEW200
     FM272300 24006KT P6SM SCT080
     FM280200 26010KT P6SM VCSH SCT060 BKN200
     FM280500 23015G29KT P6SM -TSRA OVC060CB
     FM280800 24019G38KT P6SM -TSRA OVC030CB=



000
FTUS46 KOTX 271745 CCA
TAFPUW
TAF COR
KPUW 271745Z 2718/2818 10010KT P6SM FEW200
     FM272000 17010KT P6SM FEW070 SCT200
     FM272300 24006KT P6SM SCT080
     FM280300 24010KT P6SM VCSH SCT060 BKN200
     FM280600 24015G25KT P6SM -TSRA OVC060CB
     FM280800 24026G40KT P6SM -TSRA OVC030CB=



000
FTUS46 KOTX 271745 CCA
TAFPUW
TAF COR
KPUW 271745Z 2718/2818 10010KT P6SM FEW200
     FM272000 17010KT P6SM FEW070 SCT200
     FM272300 24006KT P6SM SCT080
     FM280300 24010KT P6SM VCSH SCT060 BKN200
     FM280600 24015G25KT P6SM -TSRA OVC060CB
     FM280800 24026G40KT P6SM -TSRA OVC030CB=



000
FTUS46 KOTX 271739
TAFGEG
TAF
KGEG 271739Z 2718/2818 08006KT 1SM BR BKN003
     FM272000 20009G16KT P6SM SCT050
     FM280200 20009KT P6SM FEW080 SCT120 BKN200
     FM280600 22018G32KT P6SM -SHRA OVC040
     FM280900 23025G40KT P6SM -SHRA OVC060=



000
FTUS46 KOTX 271739
TAFSFF
TAF
KSFF 271739Z 2718/2818 08006KT 4SM BR BKN003
     FM272000 VRB04KT P6SM SCT050
     FM280200 21009KT P6SM FEW080 SCT120 BKN200
     FM280600 22018G32KT P6SM -SHRA OVC040
     FM280900 25025G40KT P6SM -SHRA OVC060=



000
FTUS46 KOTX 271739
TAFPUW
TAF
KPUW 271739Z 2718/2818 10010KT P6SM FEW200
     FM272000 17010KT P6SM FEW070 SCT200
     FM272300 24006KT P6SM SCT080
     FM280200 24004KT P6SM FEW070 SCT200
     FM280500 24015KT P6SM -SHRA BKN070 OVC100
     FM280700 24022G33KT P6SM -SHRA BKN040 OVC060=



000
FTUS46 KOTX 271739
TAFEAT
TAF
KEAT 271739Z 2718/2818 30004KT P6SM SCT150 SCT200
     FM271900 13007KT P6SM SCT150 BKN200
     FM280000 29011KT P6SM SCT060 BKN150
     FM280800 29020G28KT P6SM SCT090=



000
FTUS46 KOTX 271739
TAFMWH
TAF
KMWH 271739Z 2718/2818 01005KT P6SM SCT200
     FM272000 21010KT P6SM SCT150 BKN200
     FM280400 22011KT P6SM VCSH BKN080 OVC100
     FM280600 22012G20KT P6SM -SHRA BKN050 OVC070
     FM280900 21015G22KT P6SM SCT045 BKN070=



000
FTUS46 KOTX 271739
TAFCOE
TAF
KCOE 271739Z 2718/2818 06010KT 5SM BR BKN003
     FM271900 16006KT P6SM SCT040
     FM280200 20009KT P6SM SCT050 BKN150
     FM280600 22018G32KT P6SM -SHRA OVC040
     FM280900 23025G40KT P6SM -SHRA OVC060
      AMD LTD TO CLD AND VIS=



000
FTUS46 KOTX 271739
TAFMWH
TAF
KMWH 271739Z 2718/2818 01005KT P6SM SCT200
     FM272000 21010KT P6SM SCT150 BKN200
     FM280400 22011KT P6SM VCSH BKN080 OVC100
     FM280600 22012G20KT P6SM -SHRA BKN050 OVC070
     FM280900 21015G22KT P6SM SCT045 BKN070=



000
FTUS46 KOTX 271739
TAFSFF
TAF
KSFF 271739Z 2718/2818 08006KT 4SM BR BKN003
     FM272000 VRB04KT P6SM SCT050
     FM280200 21009KT P6SM FEW080 SCT120 BKN200
     FM280600 22018G32KT P6SM -SHRA OVC040
     FM280900 25025G40KT P6SM -SHRA OVC060=



000
FTUS46 KOTX 271739
TAFEAT
TAF
KEAT 271739Z 2718/2818 30004KT P6SM SCT150 SCT200
     FM271900 13007KT P6SM SCT150 BKN200
     FM280000 29011KT P6SM SCT060 BKN150
     FM280800 29020G28KT P6SM SCT090=



000
FTUS46 KOTX 271739
TAFSFF
TAF
KSFF 271739Z 2718/2818 08006KT 4SM BR BKN003
     FM272000 VRB04KT P6SM SCT050
     FM280200 21009KT P6SM FEW080 SCT120 BKN200
     FM280600 22018G32KT P6SM -SHRA OVC040
     FM280900 25025G40KT P6SM -SHRA OVC060=



000
FTUS46 KOTX 271739
TAFCOE
TAF
KCOE 271739Z 2718/2818 06010KT 5SM BR BKN003
     FM271900 16006KT P6SM SCT040
     FM280200 20009KT P6SM SCT050 BKN150
     FM280600 22018G32KT P6SM -SHRA OVC040
     FM280900 23025G40KT P6SM -SHRA OVC060
      AMD LTD TO CLD AND VIS=



000
FTUS46 KOTX 271739
TAFMWH
TAF
KMWH 271739Z 2718/2818 01005KT P6SM SCT200
     FM272000 21010KT P6SM SCT150 BKN200
     FM280400 22011KT P6SM VCSH BKN080 OVC100
     FM280600 22012G20KT P6SM -SHRA BKN050 OVC070
     FM280900 21015G22KT P6SM SCT045 BKN070=



000
FTUS46 KOTX 271739
TAFPUW
TAF
KPUW 271739Z 2718/2818 10010KT P6SM FEW200
     FM272000 17010KT P6SM FEW070 SCT200
     FM272300 24006KT P6SM SCT080
     FM280200 24004KT P6SM FEW070 SCT200
     FM280500 24015KT P6SM -SHRA BKN070 OVC100
     FM280700 24022G33KT P6SM -SHRA BKN040 OVC060=



000
FTUS46 KOTX 271739
TAFLWS
TAF
KLWS 271739Z 2718/2818 09007KT P6SM FEW200
     FM272300 33006KT P6SM SCT080
     FM280400 23008KT P6SM VCTS SCT060CB BKN120
     FM280700 23017G25KT P6SM -SHRA BKN050 OVC070=



000
FTUS46 KOTX 271739
TAFGEG
TAF
KGEG 271739Z 2718/2818 08006KT 1SM BR BKN003
     FM272000 20009G16KT P6SM SCT050
     FM280200 20009KT P6SM FEW080 SCT120 BKN200
     FM280600 22018G32KT P6SM -SHRA OVC040
     FM280900 23025G40KT P6SM -SHRA OVC060=



000
FTUS46 KOTX 271739
TAFLWS
TAF
KLWS 271739Z 2718/2818 09007KT P6SM FEW200
     FM272300 33006KT P6SM SCT080
     FM280400 23008KT P6SM VCTS SCT060CB BKN120
     FM280700 23017G25KT P6SM -SHRA BKN050 OVC070=



000
FTUS46 KOTX 271739
TAFPUW
TAF
KPUW 271739Z 2718/2818 10010KT P6SM FEW200
     FM272000 17010KT P6SM FEW070 SCT200
     FM272300 24006KT P6SM SCT080
     FM280200 24004KT P6SM FEW070 SCT200
     FM280500 24015KT P6SM -SHRA BKN070 OVC100
     FM280700 24022G33KT P6SM -SHRA BKN040 OVC060=



000
FTUS46 KOTX 271739
TAFCOE
TAF
KCOE 271739Z 2718/2818 06010KT 5SM BR BKN003
     FM271900 16006KT P6SM SCT040
     FM280200 20009KT P6SM SCT050 BKN150
     FM280600 22018G32KT P6SM -SHRA OVC040
     FM280900 23025G40KT P6SM -SHRA OVC060
      AMD LTD TO CLD AND VIS=



000
FTUS46 KOTX 271739
TAFEAT
TAF
KEAT 271739Z 2718/2818 30004KT P6SM SCT150 SCT200
     FM271900 13007KT P6SM SCT150 BKN200
     FM280000 29011KT P6SM SCT060 BKN150
     FM280800 29020G28KT P6SM SCT090=



000
FTUS46 KOTX 271739
TAFMWH
TAF
KMWH 271739Z 2718/2818 01005KT P6SM SCT200
     FM272000 21010KT P6SM SCT150 BKN200
     FM280400 22011KT P6SM VCSH BKN080 OVC100
     FM280600 22012G20KT P6SM -SHRA BKN050 OVC070
     FM280900 21015G22KT P6SM SCT045 BKN070=



000
FTUS46 KOTX 271739
TAFGEG
TAF
KGEG 271739Z 2718/2818 08006KT 1SM BR BKN003
     FM272000 20009G16KT P6SM SCT050
     FM280200 20009KT P6SM FEW080 SCT120 BKN200
     FM280600 22018G32KT P6SM -SHRA OVC040
     FM280900 23025G40KT P6SM -SHRA OVC060=



000
FTUS46 KOTX 271739
TAFSFF
TAF
KSFF 271739Z 2718/2818 08006KT 4SM BR BKN003
     FM272000 VRB04KT P6SM SCT050
     FM280200 21009KT P6SM FEW080 SCT120 BKN200
     FM280600 22018G32KT P6SM -SHRA OVC040
     FM280900 25025G40KT P6SM -SHRA OVC060=



000
FTUS46 KOTX 271739
TAFLWS
TAF
KLWS 271739Z 2718/2818 09007KT P6SM FEW200
     FM272300 33006KT P6SM SCT080
     FM280400 23008KT P6SM VCTS SCT060CB BKN120
     FM280700 23017G25KT P6SM -SHRA BKN050 OVC070=



000
FTUS46 KOTX 271739
TAFGEG
TAF
KGEG 271739Z 2718/2818 08006KT 1SM BR BKN003
     FM272000 20009G16KT P6SM SCT050
     FM280200 20009KT P6SM FEW080 SCT120 BKN200
     FM280600 22018G32KT P6SM -SHRA OVC040
     FM280900 23025G40KT P6SM -SHRA OVC060=



000
FTUS46 KOTX 271739
TAFEAT
TAF
KEAT 271739Z 2718/2818 30004KT P6SM SCT150 SCT200
     FM271900 13007KT P6SM SCT150 BKN200
     FM280000 29011KT P6SM SCT060 BKN150
     FM280800 29020G28KT P6SM SCT090=



000
FTUS46 KOTX 271739
TAFCOE
TAF
KCOE 271739Z 2718/2818 06010KT 5SM BR BKN003
     FM271900 16006KT P6SM SCT040
     FM280200 20009KT P6SM SCT050 BKN150
     FM280600 22018G32KT P6SM -SHRA OVC040
     FM280900 23025G40KT P6SM -SHRA OVC060
      AMD LTD TO CLD AND VIS=



000
FTUS46 KOTX 271739
TAFLWS
TAF
KLWS 271739Z 2718/2818 09007KT P6SM FEW200
     FM272300 33006KT P6SM SCT080
     FM280400 23008KT P6SM VCTS SCT060CB BKN120
     FM280700 23017G25KT P6SM -SHRA BKN050 OVC070=



000
FTUS46 KOTX 271739
TAFPUW
TAF
KPUW 271739Z 2718/2818 10010KT P6SM FEW200
     FM272000 17010KT P6SM FEW070 SCT200
     FM272300 24006KT P6SM SCT080
     FM280200 24004KT P6SM FEW070 SCT200
     FM280500 24015KT P6SM -SHRA BKN070 OVC100
     FM280700 24022G33KT P6SM -SHRA BKN040 OVC060=



000
FTUS46 KOTX 271521 AAA
TAFCOE
TAF AMD
KCOE 271521Z 2715/2812 05009KT 1/2SM FG OVC002
      TEMPO 2715/2718 1/4SM FG OVC001
     FM271800 21009KT P6SM FEW040 SCT200
     FM280600 22014G23KT P6SM -SHRA BKN035 OVC050
      AMD LTD TO CLD AND VIS=



000
FTUS46 KOTX 271521 AAA
TAFCOE
TAF AMD
KCOE 271521Z 2715/2812 05009KT 1/2SM FG OVC002
      TEMPO 2715/2718 1/4SM FG OVC001
     FM271800 21009KT P6SM FEW040 SCT200
     FM280600 22014G23KT P6SM -SHRA BKN035 OVC050
      AMD LTD TO CLD AND VIS=



000
FTUS46 KOTX 271519 AAA
TAFSFF
TAF AMD
KSFF 271519Z 2715/2812 00000KT 1SM BR OVC003
      TEMPO 2715/2718 1/4SM FG BKN001
     FM271800 VRB03KT P6SM SCT150
     FM272000 21009KT P6SM SCT200
     FM280600 22013G22KT P6SM -SHRA SCT040 OVC050=



000
FTUS46 KOTX 271519 AAA
TAFSFF
TAF AMD
KSFF 271519Z 2715/2812 00000KT 1SM BR OVC003
      TEMPO 2715/2718 1/4SM FG BKN001
     FM271800 VRB03KT P6SM SCT150
     FM272000 21009KT P6SM SCT200
     FM280600 22013G22KT P6SM -SHRA SCT040 OVC050=



000
FTUS46 KOTX 271402 AAA
TAFGEG
TAF AMD
KGEG 271402Z 2714/2812 06005KT 1/4SM FG OVC001
     FM271630 08006KT 3SM BR BKN003
     FM271800 12007KT P6SM SCT007 SCT150
     FM271900 20009G16KT P6SM SCT200
     FM280200 20009KT P6SM FEW080 SCT120 BKN200
     FM280600 22018G26KT P6SM -SHRA SCT030 OVC040=



000
FTUS46 KOTX 271402 AAA
TAFGEG
TAF AMD
KGEG 271402Z 2714/2812 06005KT 1/4SM FG OVC001
     FM271630 08006KT 3SM BR BKN003
     FM271800 12007KT P6SM SCT007 SCT150
     FM271900 20009G16KT P6SM SCT200
     FM280200 20009KT P6SM FEW080 SCT120 BKN200
     FM280600 22018G26KT P6SM -SHRA SCT030 OVC040=



000
FTUS46 KOTX 271402 AAA
TAFGEG
TAF AMD
KGEG 271402Z 2714/2812 06005KT 1/4SM FG OVC001
     FM271630 08006KT 3SM BR BKN003
     FM271800 12007KT P6SM SCT007 SCT150
     FM271900 20009G16KT P6SM SCT200
     FM280200 20009KT P6SM FEW080 SCT120 BKN200
     FM280600 22018G26KT P6SM -SHRA SCT030 OVC040=



000
FTUS46 KOTX 271402 AAA
TAFGEG
TAF AMD
KGEG 271402Z 2714/2812 06005KT 1/4SM FG OVC001
     FM271630 08006KT 3SM BR BKN003
     FM271800 12007KT P6SM SCT007 SCT150
     FM271900 20009G16KT P6SM SCT200
     FM280200 20009KT P6SM FEW080 SCT120 BKN200
     FM280600 22018G26KT P6SM -SHRA SCT030 OVC040=



000
FTUS46 KOTX 271139
TAFSFF
TAF
KSFF 271139Z 2712/2812 00000KT 6SM BR OVC006
     FM271300 00000KT 3SM BR BCFG SCT002 BKN200
      TEMPO 2713/2715 1/2SM FG BKN002
     FM271600 VRB03KT P6SM SCT150
     FM272000 21009KT P6SM SCT200
     FM280600 22013G22KT P6SM -SHRA SCT040 OVC050=



000
FTUS46 KOTX 271139
TAFGEG
TAF
KGEG 271139Z 2712/2812 06005KT 1SM BR OVC001
     FM271630 08006KT 5SM BR SCT003 SCT200
     FM271700 12007KT P6SM SCT150
     FM271900 20009G16KT P6SM SCT200
     FM280200 20009KT P6SM FEW080 SCT120 BKN200
     FM280600 22018G26KT P6SM -SHRA SCT030 OVC040=



000
FTUS46 KOTX 271139
TAFEAT
TAF
KEAT 271139Z 2712/2812 30004KT P6SM SCT150 SCT200
     FM271800 13007KT P6SM SCT150 BKN200
     FM280000 29011KT P6SM SCT060 BKN150
     FM280800 29020G28KT P6SM SCT090=



000
FTUS46 KOTX 271139
TAFGEG
TAF
KGEG 271139Z 2712/2812 06005KT 1SM BR OVC001
     FM271630 08006KT 5SM BR SCT003 SCT200
     FM271700 12007KT P6SM SCT150
     FM271900 20009G16KT P6SM SCT200
     FM280200 20009KT P6SM FEW080 SCT120 BKN200
     FM280600 22018G26KT P6SM -SHRA SCT030 OVC040=



000
FTUS46 KOTX 271139
TAFSFF
TAF
KSFF 271139Z 2712/2812 00000KT 6SM BR OVC006
     FM271300 00000KT 3SM BR BCFG SCT002 BKN200
      TEMPO 2713/2715 1/2SM FG BKN002
     FM271600 VRB03KT P6SM SCT150
     FM272000 21009KT P6SM SCT200
     FM280600 22013G22KT P6SM -SHRA SCT040 OVC050=



000
FTUS46 KOTX 271139
TAFSFF
TAF
KSFF 271139Z 2712/2812 00000KT 6SM BR OVC006
     FM271300 00000KT 3SM BR BCFG SCT002 BKN200
      TEMPO 2713/2715 1/2SM FG BKN002
     FM271600 VRB03KT P6SM SCT150
     FM272000 21009KT P6SM SCT200
     FM280600 22013G22KT P6SM -SHRA SCT040 OVC050=



000
FTUS46 KOTX 271139
TAFPUW
TAF
KPUW 271139Z 2712/2812 10010KT P6SM FEW200
     FM272000 17010KT P6SM FEW070 SCT200
     FM272300 24006KT P6SM SCT080
     FM280200 24004KT P6SM FEW070 SCT200
     FM280500 24015KT P6SM -SHRA BKN070 OVC100
     FM280700 24022G33KT P6SM -SHRA BKN040 OVC060=



000
FTUS46 KOTX 271139
TAFCOE
TAF
KCOE 271139Z 2712/2812 07005KT 1SM BR BKN001 BKN200
     FM271630 08007KT P6SM SCT150
     FM272100 21009KT P6SM FEW040 SCT200
     FM280600 22014G23KT P6SM -SHRA BKN035 OVC050
      AMD LTD TO CLD AND VIS=



000
FTUS46 KOTX 271139
TAFEAT
TAF
KEAT 271139Z 2712/2812 30004KT P6SM SCT150 SCT200
     FM271800 13007KT P6SM SCT150 BKN200
     FM280000 29011KT P6SM SCT060 BKN150
     FM280800 29020G28KT P6SM SCT090=



000
FTUS46 KOTX 271139
TAFLWS
TAF
KLWS 271139Z 2712/2812 09007KT P6SM FEW200
     FM272300 33006KT P6SM SCT080
     FM280400 23008KT P6SM VCTS SCT060CB BKN120
     FM280700 23017G25KT P6SM -SHRA BKN050 OVC070=



000
FTUS46 KOTX 271139
TAFLWS
TAF
KLWS 271139Z 2712/2812 09007KT P6SM FEW200
     FM272300 33006KT P6SM SCT080
     FM280400 23008KT P6SM VCTS SCT060CB BKN120
     FM280700 23017G25KT P6SM -SHRA BKN050 OVC070=



000
FTUS46 KOTX 271139
TAFMWH
TAF
KMWH 271139Z 2712/2812 01005KT P6SM SCT200
     FM272000 21010KT P6SM SCT150 BKN200
     FM280400 22011KT P6SM VCSH BKN080 OVC100
     FM280600 22012G20KT P6SM -SHRA BKN050 OVC070
     FM280900 21015G22KT P6SM SCT045 BKN070=



000
FTUS46 KOTX 271139
TAFCOE
TAF
KCOE 271139Z 2712/2812 07005KT 1SM BR BKN001 BKN200
     FM271630 08007KT P6SM SCT150
     FM272100 21009KT P6SM FEW040 SCT200
     FM280600 22014G23KT P6SM -SHRA BKN035 OVC050
      AMD LTD TO CLD AND VIS=



000
FTUS46 KOTX 271139
TAFGEG
TAF
KGEG 271139Z 2712/2812 06005KT 1SM BR OVC001
     FM271630 08006KT 5SM BR SCT003 SCT200
     FM271700 12007KT P6SM SCT150
     FM271900 20009G16KT P6SM SCT200
     FM280200 20009KT P6SM FEW080 SCT120 BKN200
     FM280600 22018G26KT P6SM -SHRA SCT030 OVC040=



000
FTUS46 KOTX 271139
TAFPUW
TAF
KPUW 271139Z 2712/2812 10010KT P6SM FEW200
     FM272000 17010KT P6SM FEW070 SCT200
     FM272300 24006KT P6SM SCT080
     FM280200 24004KT P6SM FEW070 SCT200
     FM280500 24015KT P6SM -SHRA BKN070 OVC100
     FM280700 24022G33KT P6SM -SHRA BKN040 OVC060=



000
FTUS46 KOTX 271139
TAFPUW
TAF
KPUW 271139Z 2712/2812 10010KT P6SM FEW200
     FM272000 17010KT P6SM FEW070 SCT200
     FM272300 24006KT P6SM SCT080
     FM280200 24004KT P6SM FEW070 SCT200
     FM280500 24015KT P6SM -SHRA BKN070 OVC100
     FM280700 24022G33KT P6SM -SHRA BKN040 OVC060=



000
FTUS46 KOTX 271139
TAFCOE
TAF
KCOE 271139Z 2712/2812 07005KT 1SM BR BKN001 BKN200
     FM271630 08007KT P6SM SCT150
     FM272100 21009KT P6SM FEW040 SCT200
     FM280600 22014G23KT P6SM -SHRA BKN035 OVC050
      AMD LTD TO CLD AND VIS=



000
FTUS46 KOTX 271139
TAFMWH
TAF
KMWH 271139Z 2712/2812 01005KT P6SM SCT200
     FM272000 21010KT P6SM SCT150 BKN200
     FM280400 22011KT P6SM VCSH BKN080 OVC100
     FM280600 22012G20KT P6SM -SHRA BKN050 OVC070
     FM280900 21015G22KT P6SM SCT045 BKN070=



000
FTUS46 KOTX 271139
TAFLWS
TAF
KLWS 271139Z 2712/2812 09007KT P6SM FEW200
     FM272300 33006KT P6SM SCT080
     FM280400 23008KT P6SM VCTS SCT060CB BKN120
     FM280700 23017G25KT P6SM -SHRA BKN050 OVC070=



000
FTUS46 KOTX 271139
TAFGEG
TAF
KGEG 271139Z 2712/2812 06005KT 1SM BR OVC001
     FM271630 08006KT 5SM BR SCT003 SCT200
     FM271700 12007KT P6SM SCT150
     FM271900 20009G16KT P6SM SCT200
     FM280200 20009KT P6SM FEW080 SCT120 BKN200
     FM280600 22018G26KT P6SM -SHRA SCT030 OVC040=



000
FTUS46 KOTX 271139
TAFMWH
TAF
KMWH 271139Z 2712/2812 01005KT P6SM SCT200
     FM272000 21010KT P6SM SCT150 BKN200
     FM280400 22011KT P6SM VCSH BKN080 OVC100
     FM280600 22012G20KT P6SM -SHRA BKN050 OVC070
     FM280900 21015G22KT P6SM SCT045 BKN070=



000
FTUS46 KOTX 271139
TAFEAT
TAF
KEAT 271139Z 2712/2812 30004KT P6SM SCT150 SCT200
     FM271800 13007KT P6SM SCT150 BKN200
     FM280000 29011KT P6SM SCT060 BKN150
     FM280800 29020G28KT P6SM SCT090=



000
FTUS46 KOTX 271139
TAFSFF
TAF
KSFF 271139Z 2712/2812 00000KT 6SM BR OVC006
     FM271300 00000KT 3SM BR BCFG SCT002 BKN200
      TEMPO 2713/2715 1/2SM FG BKN002
     FM271600 VRB03KT P6SM SCT150
     FM272000 21009KT P6SM SCT200
     FM280600 22013G22KT P6SM -SHRA SCT040 OVC050=



000
FTUS46 KOTX 271139
TAFMWH
TAF
KMWH 271139Z 2712/2812 01005KT P6SM SCT200
     FM272000 21010KT P6SM SCT150 BKN200
     FM280400 22011KT P6SM VCSH BKN080 OVC100
     FM280600 22012G20KT P6SM -SHRA BKN050 OVC070
     FM280900 21015G22KT P6SM SCT045 BKN070=



000
FTUS46 KOTX 271139
TAFCOE
TAF
KCOE 271139Z 2712/2812 07005KT 1SM BR BKN001 BKN200
     FM271630 08007KT P6SM SCT150
     FM272100 21009KT P6SM FEW040 SCT200
     FM280600 22014G23KT P6SM -SHRA BKN035 OVC050
      AMD LTD TO CLD AND VIS=



000
FTUS46 KOTX 271139
TAFEAT
TAF
KEAT 271139Z 2712/2812 30004KT P6SM SCT150 SCT200
     FM271800 13007KT P6SM SCT150 BKN200
     FM280000 29011KT P6SM SCT060 BKN150
     FM280800 29020G28KT P6SM SCT090=



000
FTUS46 KOTX 271139
TAFLWS
TAF
KLWS 271139Z 2712/2812 09007KT P6SM FEW200
     FM272300 33006KT P6SM SCT080
     FM280400 23008KT P6SM VCTS SCT060CB BKN120
     FM280700 23017G25KT P6SM -SHRA BKN050 OVC070=



000
FTUS46 KOTX 271139
TAFPUW
TAF
KPUW 271139Z 2712/2812 10010KT P6SM FEW200
     FM272000 17010KT P6SM FEW070 SCT200
     FM272300 24006KT P6SM SCT080
     FM280200 24004KT P6SM FEW070 SCT200
     FM280500 24015KT P6SM -SHRA BKN070 OVC100
     FM280700 24022G33KT P6SM -SHRA BKN040 OVC060=



000
FTUS46 KOTX 271106 AAA
TAFSFF
TAF AMD
KSFF 271106Z 2711/2806 00000KT 6SM BR OVC006
     FM271300 00000KT 3SM BR BCFG SCT002 BKN200
      TEMPO 2713/2715 1/2SM FG BKN002
     FM271600 VRB03KT P6SM SCT200
     FM272000 21008G15KT P6SM SCT200
     FM280200 22005KT P6SM FEW080 SCT120 BKN200=



000
FTUS46 KOTX 271106 AAA
TAFSFF
TAF AMD
KSFF 271106Z 2711/2806 00000KT 6SM BR OVC006
     FM271300 00000KT 3SM BR BCFG SCT002 BKN200
      TEMPO 2713/2715 1/2SM FG BKN002
     FM271600 VRB03KT P6SM SCT200
     FM272000 21008G15KT P6SM SCT200
     FM280200 22005KT P6SM FEW080 SCT120 BKN200=



000
FTUS46 KOTX 271106 AAA
TAFSFF
TAF AMD
KSFF 271106Z 2711/2806 00000KT 6SM BR OVC006
     FM271300 00000KT 3SM BR BCFG SCT002 BKN200
      TEMPO 2713/2715 1/2SM FG BKN002
     FM271600 VRB03KT P6SM SCT200
     FM272000 21008G15KT P6SM SCT200
     FM280200 22005KT P6SM FEW080 SCT120 BKN200=



000
FTUS46 KOTX 271106 AAA
TAFSFF
TAF AMD
KSFF 271106Z 2711/2806 00000KT 6SM BR OVC006
     FM271300 00000KT 3SM BR BCFG SCT002 BKN200
      TEMPO 2713/2715 1/2SM FG BKN002
     FM271600 VRB03KT P6SM SCT200
     FM272000 21008G15KT P6SM SCT200
     FM280200 22005KT P6SM FEW080 SCT120 BKN200=



000
FTUS46 KOTX 271104 AAA
TAFGEG
TAF AMD
KGEG 271104Z 2711/2806 05005KT 4SM BR BCFG SCT001 SCT200
      TEMPO 2711/2713 1/2SM FG BKN001 BKN200
     FM271400 06005KT 1/2SM FG OVC001
     FM271630 08006KT 5SM BR SCT003 SCT200
     FM271700 12007KT P6SM SCT200
     FM271900 20009G16KT P6SM SCT200
     FM280200 20009KT P6SM FEW080 SCT120 BKN200=



000
FTUS46 KOTX 271104 AAA
TAFGEG
TAF AMD
KGEG 271104Z 2711/2806 05005KT 4SM BR BCFG SCT001 SCT200
      TEMPO 2711/2713 1/2SM FG BKN001 BKN200
     FM271400 06005KT 1/2SM FG OVC001
     FM271630 08006KT 5SM BR SCT003 SCT200
     FM271700 12007KT P6SM SCT200
     FM271900 20009G16KT P6SM SCT200
     FM280200 20009KT P6SM FEW080 SCT120 BKN200=



000
FTUS46 KOTX 271104 AAA
TAFGEG
TAF AMD
KGEG 271104Z 2711/2806 05005KT 4SM BR BCFG SCT001 SCT200
      TEMPO 2711/2713 1/2SM FG BKN001 BKN200
     FM271400 06005KT 1/2SM FG OVC001
     FM271630 08006KT 5SM BR SCT003 SCT200
     FM271700 12007KT P6SM SCT200
     FM271900 20009G16KT P6SM SCT200
     FM280200 20009KT P6SM FEW080 SCT120 BKN200=



000
FTUS46 KOTX 271104 AAA
TAFGEG
TAF AMD
KGEG 271104Z 2711/2806 05005KT 4SM BR BCFG SCT001 SCT200
      TEMPO 2711/2713 1/2SM FG BKN001 BKN200
     FM271400 06005KT 1/2SM FG OVC001
     FM271630 08006KT 5SM BR SCT003 SCT200
     FM271700 12007KT P6SM SCT200
     FM271900 20009G16KT P6SM SCT200
     FM280200 20009KT P6SM FEW080 SCT120 BKN200=



    US Dept of Commerce
    National Oceanic and Atmospheric Administration
    National Weather Service
    1325 East West Highway
    Silver Spring, MD 20910
    Page Author: NWS Internet Services Team
Disclaimer
Information Quality
Credits
Glossary
Privacy Policy
Freedom of Information Act (FOIA)
About Us
Career Opportunities